<?xml version="1.0" encoding="UTF-8" standalone="no" ?>
<gpx xmlns="http://www.topografix.com/GPX/1/1" xmlns:xsi="http://www.w3.org/2001/XMLSchema-instance" xsi:schemaLocation="http://www.topografix.com/GPX/1/1 http://www.topografix.com/GPX/1/1/gpx.xsd" version="1.1" creator="VisuGPX - https://www.visugpx.com">
  <metadata>
    <name>Tour-de-Loire-41-1100</name>
    <desc><![CDATA[Week-end VTT 2019 - Tour de Loire - 41 km - D+ : 1100 m]]></desc>
  </metadata>
  <trk>
    <name><![CDATA[Tour-de-Loire-41-1100]]></name>
    <trkseg>
      <trkpt lat="45.64465" lon="4.44837">
        <ele>632.584167</ele>
        <time>2019-07-11T18:17:23Z</time>
      </trkpt>
      <trkpt lat="45.64478" lon="4.44979">
        <ele>635.317505</ele>
        <time>2019-07-11T18:17:40Z</time>
      </trkpt>
      <trkpt lat="45.64415" lon="4.44966">
        <ele>633.914978</ele>
        <time>2019-07-11T18:17:52Z</time>
      </trkpt>
      <trkpt lat="45.64341" lon="4.44983">
        <ele>632.277527</ele>
        <time>2019-07-11T18:18:07Z</time>
      </trkpt>
      <trkpt lat="45.64292" lon="4.44972">
        <ele>632</ele>
        <time>2019-07-11T18:18:18Z</time>
      </trkpt>
      <trkpt lat="45.64234" lon="4.44937">
        <ele>630.495422</ele>
        <time>2019-07-11T18:18:21Z</time>
      </trkpt>
      <trkpt lat="45.64184" lon="4.44927">
        <ele>628.255188</ele>
        <time>2019-07-11T18:18:34Z</time>
      </trkpt>
      <trkpt lat="45.64173" lon="4.44928">
        <ele>627.653442</ele>
        <time>2019-07-11T18:18:45Z</time>
      </trkpt>
      <trkpt lat="45.64119" lon="4.44951">
        <ele>623.21405</ele>
        <time>2019-07-11T18:18:56Z</time>
      </trkpt>
      <trkpt lat="45.64077" lon="4.44978">
        <ele>619.577698</ele>
        <time>2019-07-11T18:19:19Z</time>
      </trkpt>
      <trkpt lat="45.64041" lon="4.45021">
        <ele>615.573608</ele>
        <time>2019-07-11T18:19:33Z</time>
      </trkpt>
      <trkpt lat="45.63989" lon="4.45139">
        <ele>606.094421</ele>
        <time>2019-07-11T18:19:42Z</time>
      </trkpt>
      <trkpt lat="45.6394" lon="4.45193">
        <ele>602.170654</ele>
        <time>2019-07-11T18:19:56Z</time>
      </trkpt>
      <trkpt lat="45.63906" lon="4.45219">
        <ele>599.80658</ele>
        <time>2019-07-11T18:20:05Z</time>
      </trkpt>
      <trkpt lat="45.63862" lon="4.45279">
        <ele>595.597473</ele>
        <time>2019-07-11T18:20:31Z</time>
      </trkpt>
      <trkpt lat="45.63846" lon="4.45327">
        <ele>592.544434</ele>
        <time>2019-07-11T18:20:43Z</time>
      </trkpt>
      <trkpt lat="45.63821" lon="4.45485">
        <ele>582.058044</ele>
        <time>2019-07-11T18:20:55Z</time>
      </trkpt>
      <trkpt lat="45.63802" lon="4.45552">
        <ele>580.247253</ele>
        <time>2019-07-11T18:21:00Z</time>
      </trkpt>
      <trkpt lat="45.63769" lon="4.45603">
        <ele>576.650391</ele>
        <time>2019-07-11T18:21:33Z</time>
      </trkpt>
      <trkpt lat="45.63746" lon="4.45617">
        <ele>576.166077</ele>
        <time>2019-07-11T18:21:37Z</time>
      </trkpt>
      <trkpt lat="45.63611" lon="4.45659">
        <ele>569.894531</ele>
        <time>2019-07-11T18:21:46Z</time>
      </trkpt>
      <trkpt lat="45.63592" lon="4.4566">
        <ele>569.944031</ele>
        <time>2019-07-11T18:21:56Z</time>
      </trkpt>
      <trkpt lat="45.63554" lon="4.45649">
        <ele>572.838806</ele>
        <time>2019-07-11T18:22:03Z</time>
      </trkpt>
      <trkpt lat="45.63523" lon="4.45605">
        <ele>569.284973</ele>
        <time>2019-07-11T18:22:06Z</time>
      </trkpt>
      <trkpt lat="45.63497" lon="4.4559">
        <ele>570.099182</ele>
        <time>2019-07-11T18:22:17Z</time>
      </trkpt>
      <trkpt lat="45.63485" lon="4.45593">
        <ele>570.488464</ele>
        <time>2019-07-11T18:22:28Z</time>
      </trkpt>
      <trkpt lat="45.63441" lon="4.4562">
        <ele>573.260193</ele>
        <time>2019-07-11T18:22:40Z</time>
      </trkpt>
      <trkpt lat="45.63394" lon="4.45641">
        <ele>574.58783</ele>
        <time>2019-07-11T18:22:48Z</time>
      </trkpt>
      <trkpt lat="45.63347" lon="4.45652">
        <ele>575.105164</ele>
        <time>2019-07-11T18:22:55Z</time>
      </trkpt>
      <trkpt lat="45.63312" lon="4.45656">
        <ele>576.539063</ele>
        <time>2019-07-11T18:23:02Z</time>
      </trkpt>
      <trkpt lat="45.63283" lon="4.45663">
        <ele>579.887268</ele>
        <time>2019-07-11T18:23:20Z</time>
      </trkpt>
      <trkpt lat="45.63254" lon="4.45677">
        <ele>580.946228</ele>
        <time>2019-07-11T18:23:23Z</time>
      </trkpt>
      <trkpt lat="45.63178" lon="4.45659">
        <ele>577.806274</ele>
        <time>2019-07-11T18:23:33Z</time>
      </trkpt>
      <trkpt lat="45.63164" lon="4.45649">
        <ele>576.785767</ele>
        <time>2019-07-11T18:23:43Z</time>
      </trkpt>
      <trkpt lat="45.63133" lon="4.45614">
        <ele>574.67865</ele>
        <time>2019-07-11T18:23:47Z</time>
      </trkpt>
      <trkpt lat="45.63103" lon="4.45569">
        <ele>572.040405</ele>
        <time>2019-07-11T18:23:53Z</time>
      </trkpt>
      <trkpt lat="45.63088" lon="4.45551">
        <ele>570.512939</ele>
        <time>2019-07-11T18:24:09Z</time>
      </trkpt>
      <trkpt lat="45.63077" lon="4.45517">
        <ele>569.079407</ele>
        <time>2019-07-11T18:24:17Z</time>
      </trkpt>
      <trkpt lat="45.63066" lon="4.45425">
        <ele>567.486084</ele>
        <time>2019-07-11T18:24:19Z</time>
      </trkpt>
      <trkpt lat="45.63077" lon="4.45375">
        <ele>565.40033</ele>
        <time>2019-07-11T18:24:25Z</time>
      </trkpt>
      <trkpt lat="45.63077" lon="4.45366">
        <ele>564.646912</ele>
        <time>2019-07-11T18:24:33Z</time>
      </trkpt>
      <trkpt lat="45.63088" lon="4.4533">
        <ele>561.849426</ele>
        <time>2019-07-11T18:24:37Z</time>
      </trkpt>
      <trkpt lat="45.63111" lon="4.45293">
        <ele>556.002258</ele>
        <time>2019-07-11T18:24:44Z</time>
      </trkpt>
      <trkpt lat="45.63113" lon="4.45271">
        <ele>551.965027</ele>
        <time>2019-07-11T18:24:50Z</time>
      </trkpt>
      <trkpt lat="45.63086" lon="4.45255">
        <ele>548.30249</ele>
        <time>2019-07-11T18:24:54Z</time>
      </trkpt>
      <trkpt lat="45.63062" lon="4.45246">
        <ele>546.664246</ele>
        <time>2019-07-11T18:25:08Z</time>
      </trkpt>
      <trkpt lat="45.63047" lon="4.45234">
        <ele>545.778992</ele>
        <time>2019-07-11T18:25:16Z</time>
      </trkpt>
      <trkpt lat="45.62999" lon="4.45175">
        <ele>543.444641</ele>
        <time>2019-07-11T18:25:20Z</time>
      </trkpt>
      <trkpt lat="45.62982" lon="4.45137">
        <ele>541.272766</ele>
        <time>2019-07-11T18:25:24Z</time>
      </trkpt>
      <trkpt lat="45.62975" lon="4.4511">
        <ele>538.313477</ele>
        <time>2019-07-11T18:25:35Z</time>
      </trkpt>
      <trkpt lat="45.62964" lon="4.45091">
        <ele>536.445923</ele>
        <time>2019-07-11T18:25:41Z</time>
      </trkpt>
      <trkpt lat="45.62923" lon="4.4506">
        <ele>532.874084</ele>
        <time>2019-07-11T18:25:49Z</time>
      </trkpt>
      <trkpt lat="45.62903" lon="4.45042">
        <ele>533.641968</ele>
        <time>2019-07-11T18:26:00Z</time>
      </trkpt>
      <trkpt lat="45.62878" lon="4.45003">
        <ele>533.147949</ele>
        <time>2019-07-11T18:26:11Z</time>
      </trkpt>
      <trkpt lat="45.62867" lon="4.4494">
        <ele>534.169983</ele>
        <time>2019-07-11T18:26:17Z</time>
      </trkpt>
      <trkpt lat="45.62863" lon="4.4487">
        <ele>528.384583</ele>
        <time>2019-07-11T18:26:24Z</time>
      </trkpt>
      <trkpt lat="45.62856" lon="4.44837">
        <ele>526.185791</ele>
        <time>2019-07-11T18:26:28Z</time>
      </trkpt>
      <trkpt lat="45.62837" lon="4.44805">
        <ele>521.915833</ele>
        <time>2019-07-11T18:26:35Z</time>
      </trkpt>
      <trkpt lat="45.62818" lon="4.448">
        <ele>522.116089</ele>
        <time>2019-07-11T18:26:44Z</time>
      </trkpt>
      <trkpt lat="45.62795" lon="4.44821">
        <ele>524.440674</ele>
        <time>2019-07-11T18:26:50Z</time>
      </trkpt>
      <trkpt lat="45.62758" lon="4.44841">
        <ele>524.901428</ele>
        <time>2019-07-11T18:26:59Z</time>
      </trkpt>
      <trkpt lat="45.62733" lon="4.44839">
        <ele>524.764526</ele>
        <time>2019-07-11T18:27:04Z</time>
      </trkpt>
      <trkpt lat="45.62697" lon="4.44817">
        <ele>521.05304</ele>
        <time>2019-07-11T18:27:15Z</time>
      </trkpt>
      <trkpt lat="45.6268" lon="4.44803">
        <ele>518.591492</ele>
        <time>2019-07-11T18:27:37Z</time>
      </trkpt>
      <trkpt lat="45.62646" lon="4.4475">
        <ele>518.029358</ele>
        <time>2019-07-11T18:27:42Z</time>
      </trkpt>
      <trkpt lat="45.62576" lon="4.44663">
        <ele>506.069</ele>
        <time>2019-07-11T18:27:52Z</time>
      </trkpt>
      <trkpt lat="45.62555" lon="4.4465">
        <ele>505.654114</ele>
        <time>2019-07-11T18:27:55Z</time>
      </trkpt>
      <trkpt lat="45.62515" lon="4.44645">
        <ele>504.473328</ele>
        <time>2019-07-11T18:28:16Z</time>
      </trkpt>
      <trkpt lat="45.625" lon="4.4465">
        <ele>504.974426</ele>
        <time>2019-07-11T18:28:20Z</time>
      </trkpt>
      <trkpt lat="45.62413" lon="4.44648">
        <ele>500.630951</ele>
        <time>2019-07-11T18:28:25Z</time>
      </trkpt>
      <trkpt lat="45.62399" lon="4.44633">
        <ele>498.515198</ele>
        <time>2019-07-11T18:28:31Z</time>
      </trkpt>
      <trkpt lat="45.62395" lon="4.44599">
        <ele>495.254211</ele>
        <time>2019-07-11T18:28:52Z</time>
      </trkpt>
      <trkpt lat="45.62381" lon="4.44572">
        <ele>492.968872</ele>
        <time>2019-07-11T18:28:56Z</time>
      </trkpt>
      <trkpt lat="45.62316" lon="4.44482">
        <ele>488.671204</ele>
        <time>2019-07-11T18:29:01Z</time>
      </trkpt>
      <trkpt lat="45.62309" lon="4.44459">
        <ele>487.676575</ele>
        <time>2019-07-11T18:29:04Z</time>
      </trkpt>
      <trkpt lat="45.62321" lon="4.44437">
        <ele>487.885803</ele>
        <time>2019-07-11T18:29:16Z</time>
      </trkpt>
      <trkpt lat="45.62327" lon="4.44417">
        <ele>488.357574</ele>
        <time>2019-07-11T18:29:27Z</time>
      </trkpt>
      <trkpt lat="45.62339" lon="4.44344">
        <ele>489.282501</ele>
        <time>2019-07-11T18:29:39Z</time>
      </trkpt>
      <trkpt lat="45.62359" lon="4.44285">
        <ele>488.664398</ele>
        <time>2019-07-11T18:29:48Z</time>
      </trkpt>
      <trkpt lat="45.62387" lon="4.44224">
        <ele>490.984192</ele>
        <time>2019-07-11T18:29:52Z</time>
      </trkpt>
      <trkpt lat="45.62399" lon="4.4417">
        <ele>490.144135</ele>
        <time>2019-07-11T18:30:03Z</time>
      </trkpt>
      <trkpt lat="45.624" lon="4.44148">
        <ele>489.072327</ele>
        <time>2019-07-11T18:30:15Z</time>
      </trkpt>
      <trkpt lat="45.62394" lon="4.44081">
        <ele>486.795013</ele>
        <time>2019-07-11T18:30:24Z</time>
      </trkpt>
      <trkpt lat="45.62383" lon="4.4401">
        <ele>485.410217</ele>
        <time>2019-07-11T18:30:35Z</time>
      </trkpt>
      <trkpt lat="45.62383" lon="4.43953">
        <ele>487.346252</ele>
        <time>2019-07-11T18:30:53Z</time>
      </trkpt>
      <trkpt lat="45.6239" lon="4.43888">
        <ele>488.783661</ele>
        <time>2019-07-11T18:31:05Z</time>
      </trkpt>
      <trkpt lat="45.62411" lon="4.43782">
        <ele>486.505371</ele>
        <time>2019-07-11T18:31:22Z</time>
      </trkpt>
      <trkpt lat="45.62427" lon="4.43714">
        <ele>485.953003</ele>
        <time>2019-07-11T18:31:31Z</time>
      </trkpt>
      <trkpt lat="45.62457" lon="4.43617">
        <ele>489.670013</ele>
        <time>2019-07-11T18:32:12Z</time>
      </trkpt>
      <trkpt lat="45.62468" lon="4.43565">
        <ele>490.398743</ele>
        <time>2019-07-11T18:32:45Z</time>
      </trkpt>
      <trkpt lat="45.62555" lon="4.43343">
        <ele>498.452545</ele>
        <time>2019-07-11T18:32:55Z</time>
      </trkpt>
      <trkpt lat="45.62597" lon="4.43155">
        <ele>501.402496</ele>
        <time>2019-07-11T18:33:04Z</time>
      </trkpt>
      <trkpt lat="45.62601" lon="4.43094">
        <ele>500.410004</ele>
        <time>2019-07-11T18:33:23Z</time>
      </trkpt>
      <trkpt lat="45.626" lon="4.43036">
        <ele>498.696045</ele>
        <time>2019-07-11T18:33:36Z</time>
      </trkpt>
      <trkpt lat="45.6259" lon="4.42924">
        <ele>492.286896</ele>
        <time>2019-07-11T18:33:42Z</time>
      </trkpt>
      <trkpt lat="45.62587" lon="4.42843">
        <ele>487.247284</ele>
        <time>2019-07-11T18:33:49Z</time>
      </trkpt>
      <trkpt lat="45.62575" lon="4.42806">
        <ele>484.75</ele>
        <time>2019-07-11T18:33:55Z</time>
      </trkpt>
      <trkpt lat="45.62552" lon="4.42787">
        <ele>481.630005</ele>
        <time>2019-07-11T18:34:17Z</time>
      </trkpt>
      <trkpt lat="45.62536" lon="4.42756">
        <ele>479.424988</ele>
        <time>2019-07-11T18:34:32Z</time>
      </trkpt>
      <trkpt lat="45.62522" lon="4.42624">
        <ele>477.73999</ele>
        <time>2019-07-11T18:34:51Z</time>
      </trkpt>
      <trkpt lat="45.62516" lon="4.42531">
        <ele>477.907501</ele>
        <time>2019-07-11T18:34:58Z</time>
      </trkpt>
      <trkpt lat="45.62485" lon="4.42421">
        <ele>481.663513</ele>
        <time>2019-07-11T18:35:23Z</time>
      </trkpt>
      <trkpt lat="45.62464" lon="4.4239">
        <ele>482.454865</ele>
        <time>2019-07-11T18:35:28Z</time>
      </trkpt>
      <trkpt lat="45.62387" lon="4.42288">
        <ele>481.761261</ele>
        <time>2019-07-11T18:35:31Z</time>
      </trkpt>
      <trkpt lat="45.62367" lon="4.42272">
        <ele>481.342499</ele>
        <time>2019-07-11T18:35:41Z</time>
      </trkpt>
      <trkpt lat="45.62355" lon="4.42268">
        <ele>480.602509</ele>
        <time>2019-07-11T18:35:49Z</time>
      </trkpt>
      <trkpt lat="45.62312" lon="4.42261">
        <ele>478.86731</ele>
        <time>2019-07-11T18:36:05Z</time>
      </trkpt>
      <trkpt lat="45.62277" lon="4.42261">
        <ele>478.813812</ele>
        <time>2019-07-11T18:36:13Z</time>
      </trkpt>
      <trkpt lat="45.62213" lon="4.42274">
        <ele>478.1875</ele>
        <time>2019-07-11T18:36:19Z</time>
      </trkpt>
      <trkpt lat="45.6218" lon="4.42294">
        <ele>476.297485</ele>
        <time>2019-07-11T18:36:40Z</time>
      </trkpt>
      <trkpt lat="45.62154" lon="4.42298">
        <ele>474.687347</ele>
        <time>2019-07-11T18:36:46Z</time>
      </trkpt>
      <trkpt lat="45.62066" lon="4.42268">
        <ele>474.545837</ele>
        <time>2019-07-11T18:36:54Z</time>
      </trkpt>
      <trkpt lat="45.62041" lon="4.42272">
        <ele>473.137421</ele>
        <time>2019-07-11T18:37:00Z</time>
      </trkpt>
      <trkpt lat="45.62007" lon="4.42286">
        <ele>470.992401</ele>
        <time>2019-07-11T18:37:08Z</time>
      </trkpt>
      <trkpt lat="45.61987" lon="4.42301">
        <ele>469.894104</ele>
        <time>2019-07-11T18:37:21Z</time>
      </trkpt>
      <trkpt lat="45.61951" lon="4.42304">
        <ele>469.04599</ele>
        <time>2019-07-11T18:37:30Z</time>
      </trkpt>
      <trkpt lat="45.61898" lon="4.42292">
        <ele>469</ele>
        <time>2019-07-11T18:37:40Z</time>
      </trkpt>
      <trkpt lat="45.61857" lon="4.42276">
        <ele>469</ele>
        <time>2019-07-11T18:37:45Z</time>
      </trkpt>
      <trkpt lat="45.61814" lon="4.42272">
        <ele>469.000916</ele>
        <time>2019-07-11T18:37:51Z</time>
      </trkpt>
      <trkpt lat="45.61796" lon="4.42264">
        <ele>469.003082</ele>
        <time>2019-07-11T18:37:54Z</time>
      </trkpt>
      <trkpt lat="45.61778" lon="4.42236">
        <ele>469</ele>
        <time>2019-07-11T18:37:59Z</time>
      </trkpt>
      <trkpt lat="45.61784" lon="4.42218">
        <ele>469</ele>
        <time>2019-07-11T18:38:03Z</time>
      </trkpt>
      <trkpt lat="45.61798" lon="4.422">
        <ele>469</ele>
        <time>2019-07-11T18:38:27Z</time>
      </trkpt>
      <trkpt lat="45.61802" lon="4.42176">
        <ele>468.74826</ele>
        <time>2019-07-11T18:38:36Z</time>
      </trkpt>
      <trkpt lat="45.61753" lon="4.42043">
        <ele>469.222748</ele>
        <time>2019-07-11T18:38:41Z</time>
      </trkpt>
      <trkpt lat="45.61744" lon="4.41993">
        <ele>469.3125</ele>
        <time>2019-07-11T18:38:58Z</time>
      </trkpt>
      <trkpt lat="45.61729" lon="4.41967">
        <ele>468.406891</ele>
        <time>2019-07-11T18:39:05Z</time>
      </trkpt>
      <trkpt lat="45.61668" lon="4.41913">
        <ele>468</ele>
        <time>2019-07-11T18:39:18Z</time>
      </trkpt>
      <trkpt lat="45.61652" lon="4.41875">
        <ele>468</ele>
        <time>2019-07-11T18:39:21Z</time>
      </trkpt>
      <trkpt lat="45.61633" lon="4.41802">
        <ele>468</ele>
        <time>2019-07-11T18:39:45Z</time>
      </trkpt>
      <trkpt lat="45.61632" lon="4.41784">
        <ele>468</ele>
        <time>2019-07-11T18:40:08Z</time>
      </trkpt>
      <trkpt lat="45.61607" lon="4.41639">
        <ele>467</ele>
        <time>2019-07-11T18:40:14Z</time>
      </trkpt>
      <trkpt lat="45.61593" lon="4.41499">
        <ele>465.150085</ele>
        <time>2019-07-11T18:40:27Z</time>
      </trkpt>
      <trkpt lat="45.6158" lon="4.41474">
        <ele>464.900574</ele>
        <time>2019-07-11T18:40:35Z</time>
      </trkpt>
      <trkpt lat="45.61535" lon="4.41424">
        <ele>464.621246</ele>
        <time>2019-07-11T18:40:44Z</time>
      </trkpt>
      <trkpt lat="45.61504" lon="4.41396">
        <ele>465.071136</ele>
        <time>2019-07-11T18:40:46Z</time>
      </trkpt>
      <trkpt lat="45.61486" lon="4.41347">
        <ele>464.530396</ele>
        <time>2019-07-11T18:40:48Z</time>
      </trkpt>
      <trkpt lat="45.61481" lon="4.41344">
        <ele>464.548798</ele>
        <time>2019-07-11T18:40:50Z</time>
      </trkpt>
      <trkpt lat="45.61473" lon="4.41346">
        <ele>464.739624</ele>
        <time>2019-07-11T18:40:53Z</time>
      </trkpt>
      <trkpt lat="45.61462" lon="4.41343">
        <ele>464.931641</ele>
        <time>2019-07-11T18:41:03Z</time>
      </trkpt>
      <trkpt lat="45.61449" lon="4.41346">
        <ele>465.347137</ele>
        <time>2019-07-11T18:41:09Z</time>
      </trkpt>
      <trkpt lat="45.61411" lon="4.41325">
        <ele>466.591095</ele>
        <time>2019-07-11T18:41:17Z</time>
      </trkpt>
      <trkpt lat="45.61384" lon="4.41317">
        <ele>468.397247</ele>
        <time>2019-07-11T18:41:25Z</time>
      </trkpt>
      <trkpt lat="45.61351" lon="4.41315">
        <ele>471.341553</ele>
        <time>2019-07-11T18:41:29Z</time>
      </trkpt>
      <trkpt lat="45.61319" lon="4.41323">
        <ele>474.467743</ele>
        <time>2019-07-11T18:41:37Z</time>
      </trkpt>
      <trkpt lat="45.61302" lon="4.41323">
        <ele>476.601318</ele>
        <time>2019-07-11T18:41:43Z</time>
      </trkpt>
      <trkpt lat="45.61268" lon="4.41314">
        <ele>481.709808</ele>
        <time>2019-07-11T18:41:46Z</time>
      </trkpt>
      <trkpt lat="45.61243" lon="4.41299">
        <ele>486.657013</ele>
        <time>2019-07-11T18:41:47Z</time>
      </trkpt>
      <trkpt lat="45.61232" lon="4.41289">
        <ele>489.40329</ele>
        <time>2019-07-11T18:41:50Z</time>
      </trkpt>
      <trkpt lat="45.61227" lon="4.41289">
        <ele>490.131012</ele>
        <time>2019-07-11T18:42:00Z</time>
      </trkpt>
      <trkpt lat="45.61217" lon="4.41284">
        <ele>492.233765</ele>
        <time>2019-07-11T18:42:03Z</time>
      </trkpt>
      <trkpt lat="45.61178" lon="4.41257">
        <ele>500.231476</ele>
        <time>2019-07-11T18:42:06Z</time>
      </trkpt>
      <trkpt lat="45.61164" lon="4.41253">
        <ele>502.526581</ele>
        <time>2019-07-11T18:42:12Z</time>
      </trkpt>
      <trkpt lat="45.61155" lon="4.41244">
        <ele>504.333984</ele>
        <time>2019-07-11T18:42:15Z</time>
      </trkpt>
      <trkpt lat="45.6114" lon="4.41214">
        <ele>508.553741</ele>
        <time>2019-07-11T18:42:25Z</time>
      </trkpt>
      <trkpt lat="45.61129" lon="4.41201">
        <ele>510.341858</ele>
        <time>2019-07-11T18:42:29Z</time>
      </trkpt>
      <trkpt lat="45.61092" lon="4.41174">
        <ele>514.618103</ele>
        <time>2019-07-11T18:42:43Z</time>
      </trkpt>
      <trkpt lat="45.61073" lon="4.41168">
        <ele>516.120422</ele>
        <time>2019-07-11T18:43:02Z</time>
      </trkpt>
      <trkpt lat="45.61013" lon="4.41159">
        <ele>520.424988</ele>
        <time>2019-07-11T18:43:05Z</time>
      </trkpt>
      <trkpt lat="45.60936" lon="4.41135">
        <ele>530.232178</ele>
        <time>2019-07-11T18:43:24Z</time>
      </trkpt>
      <trkpt lat="45.60924" lon="4.41123">
        <ele>532.06189</ele>
        <time>2019-07-11T18:43:29Z</time>
      </trkpt>
      <trkpt lat="45.60871" lon="4.41036">
        <ele>539.215027</ele>
        <time>2019-07-11T18:43:33Z</time>
      </trkpt>
      <trkpt lat="45.60856" lon="4.41017">
        <ele>540.424194</ele>
        <time>2019-07-11T18:43:38Z</time>
      </trkpt>
      <trkpt lat="45.6084" lon="4.41001">
        <ele>541.35498</ele>
        <time>2019-07-11T18:44:00Z</time>
      </trkpt>
      <trkpt lat="45.60821" lon="4.40994">
        <ele>542.205017</ele>
        <time>2019-07-11T18:44:06Z</time>
      </trkpt>
      <trkpt lat="45.60725" lon="4.40986">
        <ele>544.008423</ele>
        <time>2019-07-11T18:44:14Z</time>
      </trkpt>
      <trkpt lat="45.607" lon="4.4099">
        <ele>544.450012</ele>
        <time>2019-07-11T18:45:05Z</time>
      </trkpt>
      <trkpt lat="45.60667" lon="4.40989">
        <ele>544.778381</ele>
        <time>2019-07-11T18:45:10Z</time>
      </trkpt>
      <trkpt lat="45.6045" lon="4.41031">
        <ele>550.275024</ele>
        <time>2019-07-11T18:45:13Z</time>
      </trkpt>
      <trkpt lat="45.60431" lon="4.41042">
        <ele>551.3172</ele>
        <time>2019-07-11T18:45:35Z</time>
      </trkpt>
      <trkpt lat="45.60417" lon="4.41046">
        <ele>551.949402</ele>
        <time>2019-07-11T18:45:40Z</time>
      </trkpt>
      <trkpt lat="45.60337" lon="4.40979">
        <ele>558.241821</ele>
        <time>2019-07-11T18:45:42Z</time>
      </trkpt>
      <trkpt lat="45.60315" lon="4.40972">
        <ele>561.066162</ele>
        <time>2019-07-11T18:45:59Z</time>
      </trkpt>
      <trkpt lat="45.60306" lon="4.40975">
        <ele>561.992371</ele>
        <time>2019-07-11T18:46:09Z</time>
      </trkpt>
      <trkpt lat="45.60238" lon="4.40949">
        <ele>571.39856</ele>
        <time>2019-07-11T18:46:13Z</time>
      </trkpt>
      <trkpt lat="45.60195" lon="4.4094">
        <ele>576.09314</ele>
        <time>2019-07-11T18:46:14Z</time>
      </trkpt>
      <trkpt lat="45.60177" lon="4.40941">
        <ele>577.470337</ele>
        <time>2019-07-11T18:46:17Z</time>
      </trkpt>
      <trkpt lat="45.60177" lon="4.40933">
        <ele>577.971985</ele>
        <time>2019-07-11T18:46:20Z</time>
      </trkpt>
      <trkpt lat="45.60182" lon="4.40917">
        <ele>578.340027</ele>
        <time>2019-07-11T18:46:23Z</time>
      </trkpt>
      <trkpt lat="45.60174" lon="4.40903">
        <ele>579.039978</ele>
        <time>2019-07-11T18:46:40Z</time>
      </trkpt>
      <trkpt lat="45.60176" lon="4.40887">
        <ele>578.929993</ele>
        <time>2019-07-11T18:46:46Z</time>
      </trkpt>
      <trkpt lat="45.60197" lon="4.40786">
        <ele>573.961487</ele>
        <time>2019-07-11T18:46:51Z</time>
      </trkpt>
      <trkpt lat="45.60208" lon="4.40753">
        <ele>571.843994</ele>
        <time>2019-07-11T18:47:12Z</time>
      </trkpt>
      <trkpt lat="45.60222" lon="4.4073">
        <ele>570.080139</ele>
        <time>2019-07-11T18:47:18Z</time>
      </trkpt>
      <trkpt lat="45.60263" lon="4.40615">
        <ele>563.88623</ele>
        <time>2019-07-11T18:47:21Z</time>
      </trkpt>
      <trkpt lat="45.60263" lon="4.40579">
        <ele>561.990356</ele>
        <time>2019-07-11T18:47:26Z</time>
      </trkpt>
      <trkpt lat="45.60259" lon="4.40562">
        <ele>561.342896</ele>
        <time>2019-07-11T18:47:30Z</time>
      </trkpt>
      <trkpt lat="45.60263" lon="4.40529">
        <ele>559.627502</ele>
        <time>2019-07-11T18:47:58Z</time>
      </trkpt>
      <trkpt lat="45.60269" lon="4.40505">
        <ele>558.76001</ele>
        <time>2019-07-11T18:48:02Z</time>
      </trkpt>
      <trkpt lat="45.60288" lon="4.40338">
        <ele>550.138733</ele>
        <time>2019-07-11T18:48:05Z</time>
      </trkpt>
      <trkpt lat="45.603" lon="4.40325">
        <ele>548.048767</ele>
        <time>2019-07-11T18:48:16Z</time>
      </trkpt>
      <trkpt lat="45.60315" lon="4.40321">
        <ele>546.362488</ele>
        <time>2019-07-11T18:48:24Z</time>
      </trkpt>
      <trkpt lat="45.60356" lon="4.40286">
        <ele>540.691162</ele>
        <time>2019-07-11T18:48:31Z</time>
      </trkpt>
      <trkpt lat="45.6038" lon="4.40256">
        <ele>537.342896</ele>
        <time>2019-07-11T18:48:34Z</time>
      </trkpt>
      <trkpt lat="45.60391" lon="4.40215">
        <ele>534.515015</ele>
        <time>2019-07-11T18:48:55Z</time>
      </trkpt>
      <trkpt lat="45.60388" lon="4.40194">
        <ele>533.605103</ele>
        <time>2019-07-11T18:49:10Z</time>
      </trkpt>
      <trkpt lat="45.60355" lon="4.40077">
        <ele>533.650024</ele>
        <time>2019-07-11T18:49:15Z</time>
      </trkpt>
      <trkpt lat="45.60328" lon="4.39997">
        <ele>534.26062</ele>
        <time>2019-07-11T18:49:27Z</time>
      </trkpt>
      <trkpt lat="45.60327" lon="4.39965">
        <ele>533.087341</ele>
        <time>2019-07-11T18:49:48Z</time>
      </trkpt>
      <trkpt lat="45.60359" lon="4.39904">
        <ele>530.618835</ele>
        <time>2019-07-11T18:50:01Z</time>
      </trkpt>
      <trkpt lat="45.60403" lon="4.39794">
        <ele>533.987</ele>
        <time>2019-07-11T18:50:08Z</time>
      </trkpt>
      <trkpt lat="45.60423" lon="4.3972">
        <ele>536.388733</ele>
        <time>2019-07-11T18:50:16Z</time>
      </trkpt>
      <trkpt lat="45.60429" lon="4.39679">
        <ele>535.328735</ele>
        <time>2019-07-11T18:50:21Z</time>
      </trkpt>
      <trkpt lat="45.60426" lon="4.39632">
        <ele>534.005615</ele>
        <time>2019-07-11T18:50:29Z</time>
      </trkpt>
      <trkpt lat="45.60417" lon="4.39604">
        <ele>533.14447</ele>
        <time>2019-07-11T18:50:37Z</time>
      </trkpt>
      <trkpt lat="45.60394" lon="4.39565">
        <ele>535.659546</ele>
        <time>2019-07-11T18:50:39Z</time>
      </trkpt>
      <trkpt lat="45.60367" lon="4.39533">
        <ele>539.712524</ele>
        <time>2019-07-11T18:50:48Z</time>
      </trkpt>
      <trkpt lat="45.6036" lon="4.39541">
        <ele>540.60376</ele>
        <time>2019-07-11T18:50:54Z</time>
      </trkpt>
      <trkpt lat="45.60348" lon="4.39593">
        <ele>542.572449</ele>
        <time>2019-07-11T18:51:05Z</time>
      </trkpt>
      <trkpt lat="45.60337" lon="4.39625">
        <ele>543.712402</ele>
        <time>2019-07-11T18:51:15Z</time>
      </trkpt>
      <trkpt lat="45.60312" lon="4.39683">
        <ele>544.562256</ele>
        <time>2019-07-11T18:51:23Z</time>
      </trkpt>
      <trkpt lat="45.60284" lon="4.39731">
        <ele>546.538757</ele>
        <time>2019-07-11T18:51:32Z</time>
      </trkpt>
      <trkpt lat="45.60258" lon="4.39763">
        <ele>549.258789</ele>
        <time>2019-07-11T18:51:55Z</time>
      </trkpt>
      <trkpt lat="45.60228" lon="4.3979">
        <ele>552.258484</ele>
        <time>2019-07-11T18:52:01Z</time>
      </trkpt>
      <trkpt lat="45.60135" lon="4.39847">
        <ele>560.20752</ele>
        <time>2019-07-11T18:52:14Z</time>
      </trkpt>
      <trkpt lat="45.60116" lon="4.39868">
        <ele>561.710022</ele>
        <time>2019-07-11T18:52:16Z</time>
      </trkpt>
      <trkpt lat="45.60077" lon="4.39925">
        <ele>563.533752</ele>
        <time>2019-07-11T18:52:37Z</time>
      </trkpt>
      <trkpt lat="45.60068" lon="4.3992">
        <ele>563.461243</ele>
        <time>2019-07-11T18:52:42Z</time>
      </trkpt>
      <trkpt lat="45.60038" lon="4.39801">
        <ele>560.68158</ele>
        <time>2019-07-11T18:52:45Z</time>
      </trkpt>
      <trkpt lat="45.60033" lon="4.39771">
        <ele>558.952271</ele>
        <time>2019-07-11T18:52:48Z</time>
      </trkpt>
      <trkpt lat="45.60024" lon="4.39753">
        <ele>557.581238</ele>
        <time>2019-07-11T18:52:55Z</time>
      </trkpt>
      <trkpt lat="45.60015" lon="4.39757">
        <ele>557.740295</ele>
        <time>2019-07-11T18:52:59Z</time>
      </trkpt>
      <trkpt lat="45.59988" lon="4.39777">
        <ele>559.109985</ele>
        <time>2019-07-11T18:53:05Z</time>
      </trkpt>
      <trkpt lat="45.59971" lon="4.39785">
        <ele>559.64502</ele>
        <time>2019-07-11T18:53:16Z</time>
      </trkpt>
      <trkpt lat="45.59944" lon="4.39792">
        <ele>560.14502</ele>
        <time>2019-07-11T18:53:42Z</time>
      </trkpt>
      <trkpt lat="45.59897" lon="4.39787">
        <ele>558.047485</ele>
        <time>2019-07-11T18:53:52Z</time>
      </trkpt>
      <trkpt lat="45.59795" lon="4.39731">
        <ele>544.046997</ele>
        <time>2019-07-11T18:53:54Z</time>
      </trkpt>
      <trkpt lat="45.59759" lon="4.397">
        <ele>538.160034</ele>
        <time>2019-07-11T18:53:58Z</time>
      </trkpt>
      <trkpt lat="45.59752" lon="4.39709">
        <ele>537.977478</ele>
        <time>2019-07-11T18:54:01Z</time>
      </trkpt>
      <trkpt lat="45.59751" lon="4.39735">
        <ele>539.539978</ele>
        <time>2019-07-11T18:54:13Z</time>
      </trkpt>
      <trkpt lat="45.59745" lon="4.39749">
        <ele>539.733032</ele>
        <time>2019-07-11T18:54:16Z</time>
      </trkpt>
      <trkpt lat="45.59694" lon="4.39735">
        <ele>530.761719</ele>
        <time>2019-07-11T18:54:20Z</time>
      </trkpt>
      <trkpt lat="45.59685" lon="4.39722">
        <ele>528.234863</ele>
        <time>2019-07-11T18:54:25Z</time>
      </trkpt>
      <trkpt lat="45.5968" lon="4.39699">
        <ele>526.169312</ele>
        <time>2019-07-11T18:54:30Z</time>
      </trkpt>
      <trkpt lat="45.59678" lon="4.39666">
        <ele>523.284302</ele>
        <time>2019-07-11T18:54:32Z</time>
      </trkpt>
      <trkpt lat="45.59686" lon="4.39641">
        <ele>522.132019</ele>
        <time>2019-07-11T18:54:37Z</time>
      </trkpt>
      <trkpt lat="45.59682" lon="4.39631">
        <ele>520.358215</ele>
        <time>2019-07-11T18:54:44Z</time>
      </trkpt>
      <trkpt lat="45.5966" lon="4.39623">
        <ele>515.6521</ele>
        <time>2019-07-11T18:54:47Z</time>
      </trkpt>
      <trkpt lat="45.59635" lon="4.39596">
        <ele>507.716217</ele>
        <time>2019-07-11T18:54:53Z</time>
      </trkpt>
      <trkpt lat="45.59622" lon="4.39595">
        <ele>505.582275</ele>
        <time>2019-07-11T18:54:55Z</time>
      </trkpt>
      <trkpt lat="45.596" lon="4.39615">
        <ele>505.902863</ele>
        <time>2019-07-11T18:54:59Z</time>
      </trkpt>
      <trkpt lat="45.59595" lon="4.39616">
        <ele>506.248047</ele>
        <time>2019-07-11T18:55:02Z</time>
      </trkpt>
      <trkpt lat="45.5958" lon="4.39637">
        <ele>507.880005</ele>
        <time>2019-07-11T18:55:06Z</time>
      </trkpt>
      <trkpt lat="45.5957" lon="4.39645">
        <ele>508.794983</ele>
        <time>2019-07-11T18:55:09Z</time>
      </trkpt>
      <trkpt lat="45.59552" lon="4.39651">
        <ele>510.812714</ele>
        <time>2019-07-11T18:55:16Z</time>
      </trkpt>
      <trkpt lat="45.5954" lon="4.39652">
        <ele>512.069641</ele>
        <time>2019-07-11T18:55:28Z</time>
      </trkpt>
      <trkpt lat="45.59513" lon="4.39642">
        <ele>515.253601</ele>
        <time>2019-07-11T18:55:33Z</time>
      </trkpt>
      <trkpt lat="45.59462" lon="4.39637">
        <ele>520.637024</ele>
        <time>2019-07-11T18:55:42Z</time>
      </trkpt>
      <trkpt lat="45.59441" lon="4.39631">
        <ele>522.483521</ele>
        <time>2019-07-11T18:55:48Z</time>
      </trkpt>
      <trkpt lat="45.59405" lon="4.39613">
        <ele>526.450806</ele>
        <time>2019-07-11T18:56:02Z</time>
      </trkpt>
      <trkpt lat="45.59379" lon="4.39605">
        <ele>529.97113</ele>
        <time>2019-07-11T18:56:05Z</time>
      </trkpt>
      <trkpt lat="45.59323" lon="4.39572">
        <ele>539.33429</ele>
        <time>2019-07-11T18:56:11Z</time>
      </trkpt>
      <trkpt lat="45.59311" lon="4.39572">
        <ele>540.900818</ele>
        <time>2019-07-11T18:56:21Z</time>
      </trkpt>
      <trkpt lat="45.59289" lon="4.39594">
        <ele>545.450623</ele>
        <time>2019-07-11T18:56:23Z</time>
      </trkpt>
      <trkpt lat="45.59259" lon="4.39633">
        <ele>551.419983</ele>
        <time>2019-07-11T18:57:13Z</time>
      </trkpt>
      <trkpt lat="45.59251" lon="4.3964">
        <ele>552.838135</ele>
        <time>2019-07-11T18:57:20Z</time>
      </trkpt>
      <trkpt lat="45.59038" lon="4.39701">
        <ele>591.743591</ele>
        <time>2019-07-11T18:57:35Z</time>
      </trkpt>
      <trkpt lat="45.59008" lon="4.39702">
        <ele>594.611328</ele>
        <time>2019-07-11T18:57:38Z</time>
      </trkpt>
      <trkpt lat="45.58949" lon="4.39684">
        <ele>596.60498</ele>
        <time>2019-07-11T18:57:46Z</time>
      </trkpt>
      <trkpt lat="45.58946" lon="4.39663">
        <ele>596.027527</ele>
        <time>2019-07-11T18:57:54Z</time>
      </trkpt>
      <trkpt lat="45.58947" lon="4.39617">
        <ele>595.202515</ele>
        <time>2019-07-11T18:58:30Z</time>
      </trkpt>
      <trkpt lat="45.58943" lon="4.39565">
        <ele>594.502502</ele>
        <time>2019-07-11T18:58:34Z</time>
      </trkpt>
      <trkpt lat="45.58913" lon="4.3935">
        <ele>591.835938</ele>
        <time>2019-07-11T18:58:54Z</time>
      </trkpt>
      <trkpt lat="45.58904" lon="4.39331">
        <ele>591.944397</ele>
        <time>2019-07-11T18:59:23Z</time>
      </trkpt>
      <trkpt lat="45.58817" lon="4.39323">
        <ele>587.65625</ele>
        <time>2019-07-11T18:59:40Z</time>
      </trkpt>
      <trkpt lat="45.58696" lon="4.39289">
        <ele>566.747803</ele>
        <time>2019-07-11T18:59:47Z</time>
      </trkpt>
      <trkpt lat="45.58632" lon="4.39236">
        <ele>548.507507</ele>
        <time>2019-07-11T18:59:53Z</time>
      </trkpt>
      <trkpt lat="45.58629" lon="4.39197">
        <ele>544.567749</ele>
        <time>2019-07-11T18:59:57Z</time>
      </trkpt>
      <trkpt lat="45.5863" lon="4.39156">
        <ele>541.004089</ele>
        <time>2019-07-11T19:00:04Z</time>
      </trkpt>
      <trkpt lat="45.58626" lon="4.39131">
        <ele>538.547485</ele>
        <time>2019-07-11T19:00:10Z</time>
      </trkpt>
      <trkpt lat="45.58615" lon="4.39097">
        <ele>537.251221</ele>
        <time>2019-07-11T19:00:18Z</time>
      </trkpt>
      <trkpt lat="45.58598" lon="4.39068">
        <ele>535.638733</ele>
        <time>2019-07-11T19:00:20Z</time>
      </trkpt>
      <trkpt lat="45.58563" lon="4.39061">
        <ele>538.960022</ele>
        <time>2019-07-11T19:00:29Z</time>
      </trkpt>
      <trkpt lat="45.58554" lon="4.39053">
        <ele>540.257507</ele>
        <time>2019-07-11T19:00:31Z</time>
      </trkpt>
      <trkpt lat="45.58529" lon="4.39014">
        <ele>544.643799</ele>
        <time>2019-07-11T19:00:35Z</time>
      </trkpt>
      <trkpt lat="45.58527" lon="4.39">
        <ele>545.002258</ele>
        <time>2019-07-11T19:00:44Z</time>
      </trkpt>
      <trkpt lat="45.58532" lon="4.38981">
        <ele>544.23938</ele>
        <time>2019-07-11T19:00:48Z</time>
      </trkpt>
      <trkpt lat="45.58526" lon="4.38925">
        <ele>547.290222</ele>
        <time>2019-07-11T19:00:53Z</time>
      </trkpt>
      <trkpt lat="45.58529" lon="4.38898">
        <ele>547.579041</ele>
        <time>2019-07-11T19:00:57Z</time>
      </trkpt>
      <trkpt lat="45.58528" lon="4.38873">
        <ele>548.968384</ele>
        <time>2019-07-11T19:01:02Z</time>
      </trkpt>
      <trkpt lat="45.58522" lon="4.38849">
        <ele>551.715027</ele>
        <time>2019-07-11T19:01:04Z</time>
      </trkpt>
      <trkpt lat="45.58506" lon="4.38828">
        <ele>557.460022</ele>
        <time>2019-07-11T19:01:09Z</time>
      </trkpt>
      <trkpt lat="45.58502" lon="4.38817">
        <ele>558.894775</ele>
        <time>2019-07-11T19:01:13Z</time>
      </trkpt>
      <trkpt lat="45.58506" lon="4.38785">
        <ele>559.032227</ele>
        <time>2019-07-11T19:01:14Z</time>
      </trkpt>
      <trkpt lat="45.58503" lon="4.38763">
        <ele>560.570007</ele>
        <time>2019-07-11T19:01:16Z</time>
      </trkpt>
      <trkpt lat="45.58497" lon="4.38759">
        <ele>561.63501</ele>
        <time>2019-07-11T19:01:27Z</time>
      </trkpt>
      <trkpt lat="45.58488" lon="4.38759">
        <ele>563.022522</ele>
        <time>2019-07-11T19:01:33Z</time>
      </trkpt>
      <trkpt lat="45.58443" lon="4.38741">
        <ele>568.730896</ele>
        <time>2019-07-11T19:01:39Z</time>
      </trkpt>
      <trkpt lat="45.58425" lon="4.3872">
        <ele>569.933655</ele>
        <time>2019-07-11T19:01:42Z</time>
      </trkpt>
      <trkpt lat="45.584" lon="4.38704">
        <ele>571.069153</ele>
        <time>2019-07-11T19:01:46Z</time>
      </trkpt>
      <trkpt lat="45.58386" lon="4.38703">
        <ele>571.563171</ele>
        <time>2019-07-11T19:01:49Z</time>
      </trkpt>
      <trkpt lat="45.58376" lon="4.38721">
        <ele>571.360901</ele>
        <time>2019-07-11T19:01:50Z</time>
      </trkpt>
      <trkpt lat="45.58364" lon="4.38728">
        <ele>571.690002</ele>
        <time>2019-07-11T19:01:53Z</time>
      </trkpt>
      <trkpt lat="45.58359" lon="4.38726">
        <ele>572.085022</ele>
        <time>2019-07-11T19:02:05Z</time>
      </trkpt>
      <trkpt lat="45.58355" lon="4.38714">
        <ele>572.73999</ele>
        <time>2019-07-11T19:02:16Z</time>
      </trkpt>
      <trkpt lat="45.58305" lon="4.38734">
        <ele>576.233398</ele>
        <time>2019-07-11T19:02:24Z</time>
      </trkpt>
      <trkpt lat="45.58341" lon="4.38776">
        <ele>577.419861</ele>
        <time>2019-07-11T19:02:28Z</time>
      </trkpt>
      <trkpt lat="45.58361" lon="4.38819">
        <ele>578.701721</ele>
        <time>2019-07-11T19:02:31Z</time>
      </trkpt>
      <trkpt lat="45.58373" lon="4.38834">
        <ele>578.142822</ele>
        <time>2019-07-11T19:02:41Z</time>
      </trkpt>
      <trkpt lat="45.5838" lon="4.38853">
        <ele>579.126892</ele>
        <time>2019-07-11T19:02:43Z</time>
      </trkpt>
      <trkpt lat="45.58406" lon="4.38897">
        <ele>574.98877</ele>
        <time>2019-07-11T19:02:46Z</time>
      </trkpt>
      <trkpt lat="45.58412" lon="4.38911">
        <ele>573.978333</ele>
        <time>2019-07-11T19:02:53Z</time>
      </trkpt>
      <trkpt lat="45.58415" lon="4.38926">
        <ele>573.968872</ele>
        <time>2019-07-11T19:03:08Z</time>
      </trkpt>
      <trkpt lat="45.58417" lon="4.38972">
        <ele>572.853821</ele>
        <time>2019-07-11T19:03:17Z</time>
      </trkpt>
      <trkpt lat="45.58408" lon="4.39061">
        <ele>570.059509</ele>
        <time>2019-07-11T19:03:27Z</time>
      </trkpt>
      <trkpt lat="45.5841" lon="4.39112">
        <ele>566.343811</ele>
        <time>2019-07-11T19:03:29Z</time>
      </trkpt>
      <trkpt lat="45.58401" lon="4.39173">
        <ele>562.151611</ele>
        <time>2019-07-11T19:03:51Z</time>
      </trkpt>
      <trkpt lat="45.58407" lon="4.39185">
        <ele>560.187195</ele>
        <time>2019-07-11T19:03:54Z</time>
      </trkpt>
      <trkpt lat="45.58478" lon="4.39269">
        <ele>542.5578</ele>
        <time>2019-07-11T19:04:03Z</time>
      </trkpt>
      <trkpt lat="45.58474" lon="4.39288">
        <ele>541.972839</ele>
        <time>2019-07-11T19:04:24Z</time>
      </trkpt>
      <trkpt lat="45.58446" lon="4.39326">
        <ele>541.829651</ele>
        <time>2019-07-11T19:04:30Z</time>
      </trkpt>
      <trkpt lat="45.58384" lon="4.39424">
        <ele>538.832458</ele>
        <time>2019-07-11T19:04:38Z</time>
      </trkpt>
      <trkpt lat="45.5838" lon="4.39455">
        <ele>538.66394</ele>
        <time>2019-07-11T19:04:41Z</time>
      </trkpt>
      <trkpt lat="45.5838" lon="4.39505">
        <ele>541.433777</ele>
        <time>2019-07-11T19:04:44Z</time>
      </trkpt>
      <trkpt lat="45.58382" lon="4.39523">
        <ele>543.726746</ele>
        <time>2019-07-11T19:04:52Z</time>
      </trkpt>
      <trkpt lat="45.58387" lon="4.3954">
        <ele>546.162964</ele>
        <time>2019-07-11T19:04:54Z</time>
      </trkpt>
      <trkpt lat="45.58407" lon="4.39581">
        <ele>553.080017</ele>
        <time>2019-07-11T19:04:56Z</time>
      </trkpt>
      <trkpt lat="45.58409" lon="4.39596">
        <ele>555.60498</ele>
        <time>2019-07-11T19:05:07Z</time>
      </trkpt>
      <trkpt lat="45.58404" lon="4.39604">
        <ele>556.450012</ele>
        <time>2019-07-11T19:05:09Z</time>
      </trkpt>
      <trkpt lat="45.58362" lon="4.39631">
        <ele>559.608948</ele>
        <time>2019-07-11T19:05:11Z</time>
      </trkpt>
      <trkpt lat="45.58354" lon="4.39639">
        <ele>560.630737</ele>
        <time>2019-07-11T19:05:13Z</time>
      </trkpt>
      <trkpt lat="45.5835" lon="4.39648">
        <ele>561.424072</ele>
        <time>2019-07-11T19:05:17Z</time>
      </trkpt>
      <trkpt lat="45.58343" lon="4.39644">
        <ele>560.260803</ele>
        <time>2019-07-11T19:05:27Z</time>
      </trkpt>
      <trkpt lat="45.58328" lon="4.39626">
        <ele>556.620178</ele>
        <time>2019-07-11T19:05:31Z</time>
      </trkpt>
      <trkpt lat="45.5829" lon="4.396">
        <ele>549.205261</ele>
        <time>2019-07-11T19:05:35Z</time>
      </trkpt>
      <trkpt lat="45.58275" lon="4.39598">
        <ele>547.207642</ele>
        <time>2019-07-11T19:05:50Z</time>
      </trkpt>
      <trkpt lat="45.58256" lon="4.39588">
        <ele>544.226135</ele>
        <time>2019-07-11T19:05:54Z</time>
      </trkpt>
      <trkpt lat="45.58236" lon="4.39502">
        <ele>539.331421</ele>
        <time>2019-07-11T19:06:02Z</time>
      </trkpt>
      <trkpt lat="45.58227" lon="4.39485">
        <ele>542.013611</ele>
        <time>2019-07-11T19:06:04Z</time>
      </trkpt>
      <trkpt lat="45.58195" lon="4.395">
        <ele>545.190369</ele>
        <time>2019-07-11T19:06:09Z</time>
      </trkpt>
      <trkpt lat="45.58187" lon="4.39513">
        <ele>545.750366</ele>
        <time>2019-07-11T19:06:16Z</time>
      </trkpt>
      <trkpt lat="45.5817" lon="4.39524">
        <ele>547.847534</ele>
        <time>2019-07-11T19:06:18Z</time>
      </trkpt>
      <trkpt lat="45.58142" lon="4.39512">
        <ele>555.429749</ele>
        <time>2019-07-11T19:06:21Z</time>
      </trkpt>
      <trkpt lat="45.58133" lon="4.39501">
        <ele>559.02356</ele>
        <time>2019-07-11T19:06:23Z</time>
      </trkpt>
      <trkpt lat="45.58128" lon="4.39487">
        <ele>562.219971</ele>
        <time>2019-07-11T19:06:32Z</time>
      </trkpt>
      <trkpt lat="45.58121" lon="4.39483">
        <ele>563.797485</ele>
        <time>2019-07-11T19:06:35Z</time>
      </trkpt>
      <trkpt lat="45.58101" lon="4.39432">
        <ele>575.227173</ele>
        <time>2019-07-11T19:06:40Z</time>
      </trkpt>
      <trkpt lat="45.58093" lon="4.39419">
        <ele>578.556274</ele>
        <time>2019-07-11T19:06:45Z</time>
      </trkpt>
      <trkpt lat="45.58085" lon="4.39389">
        <ele>584.486633</ele>
        <time>2019-07-11T19:06:51Z</time>
      </trkpt>
      <trkpt lat="45.58075" lon="4.39366">
        <ele>589.116638</ele>
        <time>2019-07-11T19:06:58Z</time>
      </trkpt>
      <trkpt lat="45.5807" lon="4.39326">
        <ele>595.97699</ele>
        <time>2019-07-11T19:07:19Z</time>
      </trkpt>
      <trkpt lat="45.58052" lon="4.39297">
        <ele>601.7229</ele>
        <time>2019-07-11T19:07:42Z</time>
      </trkpt>
      <trkpt lat="45.57966" lon="4.39249">
        <ele>611.266052</ele>
        <time>2019-07-11T19:08:03Z</time>
      </trkpt>
      <trkpt lat="45.57885" lon="4.39174">
        <ele>621.455017</ele>
        <time>2019-07-11T19:08:08Z</time>
      </trkpt>
      <trkpt lat="45.57804" lon="4.39119">
        <ele>632.690613</ele>
        <time>2019-07-11T19:08:14Z</time>
      </trkpt>
      <trkpt lat="45.57791" lon="4.39094">
        <ele>635.533508</ele>
        <time>2019-07-11T19:08:31Z</time>
      </trkpt>
      <trkpt lat="45.57766" lon="4.39098">
        <ele>637.183167</ele>
        <time>2019-07-11T19:08:36Z</time>
      </trkpt>
      <trkpt lat="45.57698" lon="4.39055">
        <ele>644.118774</ele>
        <time>2019-07-11T19:08:38Z</time>
      </trkpt>
      <trkpt lat="45.5768" lon="4.39036">
        <ele>645.782471</ele>
        <time>2019-07-11T19:08:40Z</time>
      </trkpt>
      <trkpt lat="45.57675" lon="4.39026">
        <ele>646.076233</ele>
        <time>2019-07-11T19:08:49Z</time>
      </trkpt>
      <trkpt lat="45.57667" lon="4.39025">
        <ele>646.744141</ele>
        <time>2019-07-11T19:08:54Z</time>
      </trkpt>
      <trkpt lat="45.57679" lon="4.39075">
        <ele>645.193726</ele>
        <time>2019-07-11T19:09:01Z</time>
      </trkpt>
      <trkpt lat="45.57681" lon="4.39107">
        <ele>643.666016</ele>
        <time>2019-07-11T19:09:06Z</time>
      </trkpt>
      <trkpt lat="45.57677" lon="4.39147">
        <ele>640.354492</ele>
        <time>2019-07-11T19:09:21Z</time>
      </trkpt>
      <trkpt lat="45.57669" lon="4.39174">
        <ele>638.596069</ele>
        <time>2019-07-11T19:09:39Z</time>
      </trkpt>
      <trkpt lat="45.57637" lon="4.39254">
        <ele>633.763611</ele>
        <time>2019-07-11T19:09:51Z</time>
      </trkpt>
      <trkpt lat="45.57593" lon="4.3935">
        <ele>628.950134</ele>
        <time>2019-07-11T19:10:01Z</time>
      </trkpt>
      <trkpt lat="45.57571" lon="4.39412">
        <ele>625.039612</ele>
        <time>2019-07-11T19:10:07Z</time>
      </trkpt>
      <trkpt lat="45.57557" lon="4.39471">
        <ele>624.784363</ele>
        <time>2019-07-11T19:10:11Z</time>
      </trkpt>
      <trkpt lat="45.57553" lon="4.39505">
        <ele>624.840027</ele>
        <time>2019-07-11T19:10:20Z</time>
      </trkpt>
      <trkpt lat="45.57553" lon="4.39533">
        <ele>624.827515</ele>
        <time>2019-07-11T19:10:26Z</time>
      </trkpt>
      <trkpt lat="45.57545" lon="4.39585">
        <ele>624.984985</ele>
        <time>2019-07-11T19:10:35Z</time>
      </trkpt>
      <trkpt lat="45.5755" lon="4.39624">
        <ele>624.547485</ele>
        <time>2019-07-11T19:10:41Z</time>
      </trkpt>
      <trkpt lat="45.57566" lon="4.39672">
        <ele>623.406616</ele>
        <time>2019-07-11T19:10:46Z</time>
      </trkpt>
      <trkpt lat="45.57563" lon="4.39707">
        <ele>622.659668</ele>
        <time>2019-07-11T19:10:51Z</time>
      </trkpt>
      <trkpt lat="45.57557" lon="4.39736">
        <ele>622.064636</ele>
        <time>2019-07-11T19:10:58Z</time>
      </trkpt>
      <trkpt lat="45.57546" lon="4.39762">
        <ele>620.500061</ele>
        <time>2019-07-11T19:11:06Z</time>
      </trkpt>
      <trkpt lat="45.57518" lon="4.39782">
        <ele>617.620422</ele>
        <time>2019-07-11T19:11:10Z</time>
      </trkpt>
      <trkpt lat="45.57483" lon="4.39778">
        <ele>614.560547</ele>
        <time>2019-07-11T19:11:14Z</time>
      </trkpt>
      <trkpt lat="45.5747" lon="4.39792">
        <ele>611.167053</ele>
        <time>2019-07-11T19:11:20Z</time>
      </trkpt>
      <trkpt lat="45.5746" lon="4.39811">
        <ele>606.367554</ele>
        <time>2019-07-11T19:11:30Z</time>
      </trkpt>
      <trkpt lat="45.57448" lon="4.39844">
        <ele>598.983704</ele>
        <time>2019-07-11T19:12:02Z</time>
      </trkpt>
      <trkpt lat="45.57445" lon="4.39905">
        <ele>586.78125</ele>
        <time>2019-07-11T19:12:05Z</time>
      </trkpt>
      <trkpt lat="45.57308" lon="4.39898">
        <ele>577.829041</ele>
        <time>2019-07-11T19:12:14Z</time>
      </trkpt>
      <trkpt lat="45.57304" lon="4.39913">
        <ele>577.494995</ele>
        <time>2019-07-11T19:12:37Z</time>
      </trkpt>
      <trkpt lat="45.57265" lon="4.39929">
        <ele>579.611206</ele>
        <time>2019-07-11T19:12:41Z</time>
      </trkpt>
      <trkpt lat="45.57202" lon="4.40036">
        <ele>581.137146</ele>
        <time>2019-07-11T19:12:44Z</time>
      </trkpt>
      <trkpt lat="45.57195" lon="4.40061">
        <ele>582.360962</ele>
        <time>2019-07-11T19:12:52Z</time>
      </trkpt>
      <trkpt lat="45.572" lon="4.40076">
        <ele>583.687805</ele>
        <time>2019-07-11T19:13:01Z</time>
      </trkpt>
      <trkpt lat="45.57222" lon="4.40113">
        <ele>587.899963</ele>
        <time>2019-07-11T19:13:05Z</time>
      </trkpt>
      <trkpt lat="45.57254" lon="4.40146">
        <ele>592.335022</ele>
        <time>2019-07-11T19:13:08Z</time>
      </trkpt>
      <trkpt lat="45.57251" lon="4.40172">
        <ele>594.659607</ele>
        <time>2019-07-11T19:13:17Z</time>
      </trkpt>
      <trkpt lat="45.57254" lon="4.40187">
        <ele>596.1474</ele>
        <time>2019-07-11T19:13:21Z</time>
      </trkpt>
      <trkpt lat="45.57287" lon="4.40213">
        <ele>598.584778</ele>
        <time>2019-07-11T19:13:25Z</time>
      </trkpt>
      <trkpt lat="45.57298" lon="4.40236">
        <ele>600.21991</ele>
        <time>2019-07-11T19:13:29Z</time>
      </trkpt>
      <trkpt lat="45.57298" lon="4.40258">
        <ele>600.6875</ele>
        <time>2019-07-11T19:13:33Z</time>
      </trkpt>
      <trkpt lat="45.57289" lon="4.40278">
        <ele>601.580383</ele>
        <time>2019-07-11T19:13:53Z</time>
      </trkpt>
      <trkpt lat="45.57276" lon="4.40298">
        <ele>602.983704</ele>
        <time>2019-07-11T19:14:06Z</time>
      </trkpt>
      <trkpt lat="45.57209" lon="4.40369">
        <ele>608.585632</ele>
        <time>2019-07-11T19:14:28Z</time>
      </trkpt>
      <trkpt lat="45.57175" lon="4.40433">
        <ele>614.566589</ele>
        <time>2019-07-11T19:14:40Z</time>
      </trkpt>
      <trkpt lat="45.57098" lon="4.40512">
        <ele>624.492004</ele>
        <time>2019-07-11T19:14:48Z</time>
      </trkpt>
      <trkpt lat="45.57049" lon="4.40531">
        <ele>627.66333</ele>
        <time>2019-07-11T19:15:17Z</time>
      </trkpt>
      <trkpt lat="45.57015" lon="4.40519">
        <ele>629.98468</ele>
        <time>2019-07-11T19:15:25Z</time>
      </trkpt>
      <trkpt lat="45.56904" lon="4.40594">
        <ele>641.682068</ele>
        <time>2019-07-11T19:15:38Z</time>
      </trkpt>
      <trkpt lat="45.56877" lon="4.40629">
        <ele>645.106934</ele>
        <time>2019-07-11T19:15:47Z</time>
      </trkpt>
      <trkpt lat="45.56829" lon="4.40669">
        <ele>653.593506</ele>
        <time>2019-07-11T19:16:09Z</time>
      </trkpt>
      <trkpt lat="45.56794" lon="4.4068">
        <ele>659.741516</ele>
        <time>2019-07-11T19:16:25Z</time>
      </trkpt>
      <trkpt lat="45.56723" lon="4.40775">
        <ele>673.570984</ele>
        <time>2019-07-11T19:16:35Z</time>
      </trkpt>
      <trkpt lat="45.56666" lon="4.40821">
        <ele>682.584167</ele>
        <time>2019-07-11T19:16:41Z</time>
      </trkpt>
      <trkpt lat="45.56647" lon="4.4088">
        <ele>686.38147</ele>
        <time>2019-07-11T19:16:51Z</time>
      </trkpt>
      <trkpt lat="45.56627" lon="4.40904">
        <ele>691.030212</ele>
        <time>2019-07-11T19:17:18Z</time>
      </trkpt>
      <trkpt lat="45.56587" lon="4.40904">
        <ele>697.51947</ele>
        <time>2019-07-11T19:17:33Z</time>
      </trkpt>
      <trkpt lat="45.56491" lon="4.41001">
        <ele>709.600891</ele>
        <time>2019-07-11T19:17:36Z</time>
      </trkpt>
      <trkpt lat="45.5645" lon="4.41074">
        <ele>715.949158</ele>
        <time>2019-07-11T19:19:04Z</time>
      </trkpt>
      <trkpt lat="45.5644" lon="4.41079">
        <ele>717.312012</ele>
        <time>2019-07-11T19:19:48Z</time>
      </trkpt>
      <trkpt lat="45.56097" lon="4.40855">
        <ele>695.865723</ele>
        <time>2019-07-11T19:20:02Z</time>
      </trkpt>
      <trkpt lat="45.55924" lon="4.40754">
        <ele>667.886169</ele>
        <time>2019-07-11T19:20:09Z</time>
      </trkpt>
      <trkpt lat="45.55873" lon="4.40803">
        <ele>658.920105</ele>
        <time>2019-07-11T19:20:22Z</time>
      </trkpt>
      <trkpt lat="45.55867" lon="4.40842">
        <ele>656.171814</ele>
        <time>2019-07-11T19:21:03Z</time>
      </trkpt>
      <trkpt lat="45.55827" lon="4.40905">
        <ele>653.290161</ele>
        <time>2019-07-11T19:21:30Z</time>
      </trkpt>
      <trkpt lat="45.55679" lon="4.41039">
        <ele>647.96875</ele>
        <time>2019-07-11T19:21:39Z</time>
      </trkpt>
      <trkpt lat="45.55611" lon="4.40911">
        <ele>641.594055</ele>
        <time>2019-07-11T19:21:44Z</time>
      </trkpt>
      <trkpt lat="45.55581" lon="4.40951">
        <ele>646.92749</ele>
        <time>2019-07-11T19:22:23Z</time>
      </trkpt>
      <trkpt lat="45.55586" lon="4.40979">
        <ele>646.91394</ele>
        <time>2019-07-11T19:23:51Z</time>
      </trkpt>
      <trkpt lat="45.55467" lon="4.41148">
        <ele>673.771973</ele>
        <time>2019-07-11T19:24:36Z</time>
      </trkpt>
      <trkpt lat="45.5513" lon="4.41388">
        <ele>705.067017</ele>
        <time>2019-07-11T19:24:49Z</time>
      </trkpt>
      <trkpt lat="45.55074" lon="4.41649">
        <ele>719.781494</ele>
        <time>2019-07-11T19:24:56Z</time>
      </trkpt>
      <trkpt lat="45.55077" lon="4.41733">
        <ele>725.635986</ele>
        <time>2019-07-11T19:25:23Z</time>
      </trkpt>
      <trkpt lat="45.55082" lon="4.4177">
        <ele>727.109741</ele>
        <time>2019-07-11T19:25:32Z</time>
      </trkpt>
      <trkpt lat="45.55025" lon="4.41914">
        <ele>724.14093</ele>
        <time>2019-07-11T19:25:38Z</time>
      </trkpt>
      <trkpt lat="45.55023" lon="4.4197">
        <ele>720.174133</ele>
        <time>2019-07-11T19:25:44Z</time>
      </trkpt>
      <trkpt lat="45.55014" lon="4.42007">
        <ele>717.780273</ele>
        <time>2019-07-11T19:25:59Z</time>
      </trkpt>
      <trkpt lat="45.55019" lon="4.42044">
        <ele>717.952698</ele>
        <time>2019-07-11T19:26:33Z</time>
      </trkpt>
      <trkpt lat="45.55022" lon="4.42136">
        <ele>721.01001</ele>
        <time>2019-07-11T19:26:52Z</time>
      </trkpt>
      <trkpt lat="45.54956" lon="4.42319">
        <ele>727.61322</ele>
        <time>2019-07-11T19:27:09Z</time>
      </trkpt>
      <trkpt lat="45.54934" lon="4.42433">
        <ele>732.880798</ele>
        <time>2019-07-11T19:27:17Z</time>
      </trkpt>
      <trkpt lat="45.54927" lon="4.42534">
        <ele>740.741211</ele>
        <time>2019-07-11T19:27:43Z</time>
      </trkpt>
      <trkpt lat="45.54929" lon="4.42584">
        <ele>743.66394</ele>
        <time>2019-07-11T19:28:08Z</time>
      </trkpt>
      <trkpt lat="45.54955" lon="4.42735">
        <ele>756.837585</ele>
        <time>2019-07-11T19:28:37Z</time>
      </trkpt>
      <trkpt lat="45.54969" lon="4.42888">
        <ele>780.127502</ele>
        <time>2019-07-11T19:29:14Z</time>
      </trkpt>
      <trkpt lat="45.54998" lon="4.43063">
        <ele>799.144775</ele>
        <time>2019-07-11T19:30:09Z</time>
      </trkpt>
      <trkpt lat="45.54998" lon="4.43285">
        <ele>812.775024</ele>
        <time>2019-07-11T19:30:15Z</time>
      </trkpt>
      <trkpt lat="45.54905" lon="4.43593">
        <ele>838.590027</ele>
        <time>2019-07-11T19:30:17Z</time>
      </trkpt>
      <trkpt lat="45.54901" lon="4.43632">
        <ele>843.801514</ele>
        <time>2019-07-11T19:30:21Z</time>
      </trkpt>
      <trkpt lat="45.54903" lon="4.43647">
        <ele>845.977539</ele>
        <time>2019-07-11T19:30:26Z</time>
      </trkpt>
      <trkpt lat="45.54902" lon="4.43666">
        <ele>848.648804</ele>
        <time>2019-07-11T19:30:30Z</time>
      </trkpt>
      <trkpt lat="45.54888" lon="4.43693">
        <ele>852.350342</ele>
        <time>2019-07-11T19:30:54Z</time>
      </trkpt>
      <trkpt lat="45.54887" lon="4.43719">
        <ele>856.108154</ele>
        <time>2019-07-11T19:30:59Z</time>
      </trkpt>
      <trkpt lat="45.54832" lon="4.43844">
        <ele>862.474976</ele>
        <time>2019-07-11T19:31:07Z</time>
      </trkpt>
      <trkpt lat="45.5483" lon="4.43872">
        <ele>861.451233</ele>
        <time>2019-07-11T19:32:07Z</time>
      </trkpt>
      <trkpt lat="45.54835" lon="4.43919">
        <ele>858.303894</ele>
        <time>2019-07-11T19:32:46Z</time>
      </trkpt>
      <trkpt lat="45.5504" lon="4.44139">
        <ele>881.371033</ele>
        <time>2019-07-11T19:34:01Z</time>
      </trkpt>
      <trkpt lat="45.55182" lon="4.44269">
        <ele>891.930969</ele>
        <time>2019-07-11T19:36:38Z</time>
      </trkpt>
      <trkpt lat="45.55489" lon="4.44391">
        <ele>881.565002</ele>
        <time>2019-07-11T19:37:50Z</time>
      </trkpt>
      <trkpt lat="45.56095" lon="4.4482">
        <ele>873</ele>
        <time>2019-07-11T19:38:10Z</time>
      </trkpt>
      <trkpt lat="45.56352" lon="4.45058">
        <ele>844.201965</ele>
        <time>2019-07-11T19:38:48Z</time>
      </trkpt>
      <trkpt lat="45.56421" lon="4.45135">
        <ele>836.686646</ele>
        <time>2019-07-11T19:39:18Z</time>
      </trkpt>
      <trkpt lat="45.56569" lon="4.45217">
        <ele>828.717896</ele>
        <time>2019-07-11T19:39:56Z</time>
      </trkpt>
      <trkpt lat="45.56681" lon="4.4531">
        <ele>828.750488</ele>
        <time>2019-07-11T19:40:46Z</time>
      </trkpt>
      <trkpt lat="45.56844" lon="4.45299">
        <ele>807.92749</ele>
        <time>2019-07-11T19:41:27Z</time>
      </trkpt>
      <trkpt lat="45.57055" lon="4.45336">
        <ele>786.262573</ele>
        <time>2019-07-11T19:41:52Z</time>
      </trkpt>
      <trkpt lat="45.5723" lon="4.45389">
        <ele>784.412537</ele>
        <time>2019-07-11T19:42:08Z</time>
      </trkpt>
      <trkpt lat="45.57335" lon="4.45388">
        <ele>774.435852</ele>
        <time>2019-07-11T19:42:34Z</time>
      </trkpt>
      <trkpt lat="45.57402" lon="4.45359">
        <ele>774.452271</ele>
        <time>2019-07-11T19:42:53Z</time>
      </trkpt>
      <trkpt lat="45.57496" lon="4.45273">
        <ele>776.22644</ele>
        <time>2019-07-11T19:43:35Z</time>
      </trkpt>
      <trkpt lat="45.57554" lon="4.45195">
        <ele>765.286621</ele>
        <time>2019-07-11T19:44:19Z</time>
      </trkpt>
      <trkpt lat="45.5773" lon="4.45144">
        <ele>742.284973</ele>
        <time>2019-07-11T19:44:27Z</time>
      </trkpt>
      <trkpt lat="45.57906" lon="4.45048">
        <ele>720.294495</ele>
        <time>2019-07-11T19:44:46Z</time>
      </trkpt>
      <trkpt lat="45.57935" lon="4.45022">
        <ele>718.021179</ele>
        <time>2019-07-11T19:45:33Z</time>
      </trkpt>
      <trkpt lat="45.57994" lon="4.44936">
        <ele>709.013794</ele>
        <time>2019-07-11T19:46:07Z</time>
      </trkpt>
      <trkpt lat="45.58156" lon="4.4477">
        <ele>701.297119</ele>
        <time>2019-07-11T19:46:40Z</time>
      </trkpt>
      <trkpt lat="45.5827" lon="4.44645">
        <ele>701.007446</ele>
        <time>2019-07-11T19:47:02Z</time>
      </trkpt>
      <trkpt lat="45.58398" lon="4.4456">
        <ele>698.998779</ele>
        <time>2019-07-11T19:47:05Z</time>
      </trkpt>
      <trkpt lat="45.58434" lon="4.44432">
        <ele>704.362976</ele>
        <time>2019-07-11T19:47:09Z</time>
      </trkpt>
      <trkpt lat="45.5844" lon="4.44418">
        <ele>705.258789</ele>
        <time>2019-07-11T19:47:32Z</time>
      </trkpt>
      <trkpt lat="45.58452" lon="4.44403">
        <ele>706.777954</ele>
        <time>2019-07-11T19:48:09Z</time>
      </trkpt>
      <trkpt lat="45.58547" lon="4.44355">
        <ele>708.158203</ele>
        <time>2019-07-11T19:48:18Z</time>
      </trkpt>
      <trkpt lat="45.58691" lon="4.44258">
        <ele>709.987488</ele>
        <time>2019-07-11T19:48:27Z</time>
      </trkpt>
      <trkpt lat="45.58727" lon="4.44252">
        <ele>709.394043</ele>
        <time>2019-07-11T19:48:52Z</time>
      </trkpt>
      <trkpt lat="45.58766" lon="4.44265">
        <ele>710.10498</ele>
        <time>2019-07-11T19:49:00Z</time>
      </trkpt>
      <trkpt lat="45.58873" lon="4.44265">
        <ele>713.320251</ele>
        <time>2019-07-11T19:49:10Z</time>
      </trkpt>
      <trkpt lat="45.58906" lon="4.44249">
        <ele>713.489685</ele>
        <time>2019-07-11T19:49:15Z</time>
      </trkpt>
      <trkpt lat="45.58939" lon="4.44214">
        <ele>713.836975</ele>
        <time>2019-07-11T19:49:23Z</time>
      </trkpt>
      <trkpt lat="45.58959" lon="4.44199">
        <ele>713.571472</ele>
        <time>2019-07-11T19:49:27Z</time>
      </trkpt>
      <trkpt lat="45.58993" lon="4.44185">
        <ele>712.905029</ele>
        <time>2019-07-11T19:49:41Z</time>
      </trkpt>
      <trkpt lat="45.59007" lon="4.44175">
        <ele>712.597473</ele>
        <time>2019-07-11T19:49:55Z</time>
      </trkpt>
      <trkpt lat="45.59066" lon="4.44171">
        <ele>711.552917</ele>
        <time>2019-07-11T19:50:09Z</time>
      </trkpt>
      <trkpt lat="45.59128" lon="4.44184">
        <ele>711.538757</ele>
        <time>2019-07-11T19:50:22Z</time>
      </trkpt>
      <trkpt lat="45.59183" lon="4.44209">
        <ele>711.89502</ele>
        <time>2019-07-11T19:51:18Z</time>
      </trkpt>
      <trkpt lat="45.59236" lon="4.44242">
        <ele>710.960022</ele>
        <time>2019-07-11T19:51:27Z</time>
      </trkpt>
      <trkpt lat="45.59469" lon="4.44308">
        <ele>697.354248</ele>
        <time>2019-07-11T19:51:28Z</time>
      </trkpt>
      <trkpt lat="45.59505" lon="4.44323">
        <ele>695.452515</ele>
        <time>2019-07-11T19:51:30Z</time>
      </trkpt>
      <trkpt lat="45.59503" lon="4.44334">
        <ele>695.359985</ele>
        <time>2019-07-11T19:51:33Z</time>
      </trkpt>
      <trkpt lat="45.59498" lon="4.4434">
        <ele>695.483765</ele>
        <time>2019-07-11T19:51:45Z</time>
      </trkpt>
      <trkpt lat="45.59502" lon="4.44359">
        <ele>694.925293</ele>
        <time>2019-07-11T19:52:09Z</time>
      </trkpt>
      <trkpt lat="45.59541" lon="4.44408">
        <ele>690.902527</ele>
        <time>2019-07-11T19:52:23Z</time>
      </trkpt>
      <trkpt lat="45.59624" lon="4.44495">
        <ele>685.833496</ele>
        <time>2019-07-11T19:52:49Z</time>
      </trkpt>
      <trkpt lat="45.59676" lon="4.44538">
        <ele>685.265015</ele>
        <time>2019-07-11T19:53:20Z</time>
      </trkpt>
      <trkpt lat="45.59778" lon="4.44594">
        <ele>684.130066</ele>
        <time>2019-07-11T19:53:25Z</time>
      </trkpt>
      <trkpt lat="45.59906" lon="4.44637">
        <ele>677.700012</ele>
        <time>2019-07-11T19:53:33Z</time>
      </trkpt>
      <trkpt lat="45.59926" lon="4.44652">
        <ele>675.849976</ele>
        <time>2019-07-11T19:53:59Z</time>
      </trkpt>
      <trkpt lat="45.59952" lon="4.44683">
        <ele>672.309998</ele>
        <time>2019-07-11T19:54:10Z</time>
      </trkpt>
      <trkpt lat="45.60052" lon="4.44758">
        <ele>660.54248</ele>
        <time>2019-07-11T19:54:25Z</time>
      </trkpt>
      <trkpt lat="45.60092" lon="4.44794">
        <ele>656.804993</ele>
        <time>2019-07-11T19:54:32Z</time>
      </trkpt>
      <trkpt lat="45.60141" lon="4.44848">
        <ele>653.75</ele>
        <time>2019-07-11T19:54:38Z</time>
      </trkpt>
      <trkpt lat="45.60168" lon="4.44865">
        <ele>651.9328</ele>
        <time>2019-07-11T19:54:47Z</time>
      </trkpt>
      <trkpt lat="45.60194" lon="4.44875">
        <ele>649.771301</ele>
        <time>2019-07-11T19:54:56Z</time>
      </trkpt>
      <trkpt lat="45.60229" lon="4.44896">
        <ele>647.538574</ele>
        <time>2019-07-11T19:55:13Z</time>
      </trkpt>
      <trkpt lat="45.60264" lon="4.44923">
        <ele>645.322998</ele>
        <time>2019-07-11T19:55:18Z</time>
      </trkpt>
      <trkpt lat="45.60322" lon="4.44981">
        <ele>638.937256</ele>
        <time>2019-07-11T19:55:25Z</time>
      </trkpt>
      <trkpt lat="45.60338" lon="4.45005">
        <ele>636.518738</ele>
        <time>2019-07-11T19:55:32Z</time>
      </trkpt>
      <trkpt lat="45.60362" lon="4.45026">
        <ele>632.896851</ele>
        <time>2019-07-11T19:55:40Z</time>
      </trkpt>
      <trkpt lat="45.60395" lon="4.45033">
        <ele>628.885925</ele>
        <time>2019-07-11T19:56:00Z</time>
      </trkpt>
      <trkpt lat="45.60425" lon="4.45052">
        <ele>625.908997</ele>
        <time>2019-07-11T19:56:28Z</time>
      </trkpt>
      <trkpt lat="45.6049" lon="4.45134">
        <ele>623.405273</ele>
        <time>2019-07-11T19:56:36Z</time>
      </trkpt>
      <trkpt lat="45.60597" lon="4.45208">
        <ele>621.172546</ele>
        <time>2019-07-11T19:56:46Z</time>
      </trkpt>
      <trkpt lat="45.60624" lon="4.45236">
        <ele>620.224976</ele>
        <time>2019-07-11T19:56:52Z</time>
      </trkpt>
      <trkpt lat="45.60663" lon="4.4527">
        <ele>615.08075</ele>
        <time>2019-07-11T19:57:02Z</time>
      </trkpt>
      <trkpt lat="45.60685" lon="4.45274">
        <ele>612.50592</ele>
        <time>2019-07-11T19:57:20Z</time>
      </trkpt>
      <trkpt lat="45.60731" lon="4.45275">
        <ele>606.481445</ele>
        <time>2019-07-11T19:57:33Z</time>
      </trkpt>
      <trkpt lat="45.60805" lon="4.45286">
        <ele>595.682495</ele>
        <time>2019-07-11T19:57:44Z</time>
      </trkpt>
      <trkpt lat="45.60861" lon="4.4526">
        <ele>586.242493</ele>
        <time>2019-07-11T19:57:49Z</time>
      </trkpt>
      <trkpt lat="45.60904" lon="4.45244">
        <ele>580.948547</ele>
        <time>2019-07-11T19:57:56Z</time>
      </trkpt>
      <trkpt lat="45.60925" lon="4.45227">
        <ele>577.326599</ele>
        <time>2019-07-11T19:58:08Z</time>
      </trkpt>
      <trkpt lat="45.60953" lon="4.45216">
        <ele>573.978333</ele>
        <time>2019-07-11T19:58:17Z</time>
      </trkpt>
      <trkpt lat="45.61002" lon="4.4521">
        <ele>570.986023</ele>
        <time>2019-07-11T19:58:27Z</time>
      </trkpt>
      <trkpt lat="45.61041" lon="4.45196">
        <ele>569.739319</ele>
        <time>2019-07-11T19:58:35Z</time>
      </trkpt>
      <trkpt lat="45.6108" lon="4.45174">
        <ele>567.977295</ele>
        <time>2019-07-11T19:58:40Z</time>
      </trkpt>
      <trkpt lat="45.61113" lon="4.45162">
        <ele>566.615845</ele>
        <time>2019-07-11T19:58:54Z</time>
      </trkpt>
      <trkpt lat="45.61135" lon="4.45163">
        <ele>565.934143</ele>
        <time>2019-07-11T19:58:59Z</time>
      </trkpt>
      <trkpt lat="45.61192" lon="4.45179">
        <ele>564.79126</ele>
        <time>2019-07-11T19:59:04Z</time>
      </trkpt>
      <trkpt lat="45.61214" lon="4.45171">
        <ele>564.445007</ele>
        <time>2019-07-11T19:59:09Z</time>
      </trkpt>
      <trkpt lat="45.61226" lon="4.45146">
        <ele>563.985779</ele>
        <time>2019-07-11T19:59:28Z</time>
      </trkpt>
      <trkpt lat="45.61242" lon="4.45129">
        <ele>562.604797</ele>
        <time>2019-07-11T19:59:33Z</time>
      </trkpt>
      <trkpt lat="45.61321" lon="4.45087">
        <ele>550.736267</ele>
        <time>2019-07-11T19:59:34Z</time>
      </trkpt>
      <trkpt lat="45.61336" lon="4.45069">
        <ele>549.051941</ele>
        <time>2019-07-11T19:59:36Z</time>
      </trkpt>
      <trkpt lat="45.61342" lon="4.45065">
        <ele>548.094788</ele>
        <time>2019-07-11T19:59:37Z</time>
      </trkpt>
      <trkpt lat="45.61343" lon="4.45075">
        <ele>547.141479</ele>
        <time>2019-07-11T19:59:41Z</time>
      </trkpt>
      <trkpt lat="45.61342" lon="4.45067">
        <ele>548.01001</ele>
        <time>2019-07-11T19:59:46Z</time>
      </trkpt>
      <trkpt lat="45.61354" lon="4.45082">
        <ele>544.253723</ele>
        <time>2019-07-11T19:59:49Z</time>
      </trkpt>
      <trkpt lat="45.61351" lon="4.45111">
        <ele>542.154663</ele>
        <time>2019-07-11T19:59:53Z</time>
      </trkpt>
      <trkpt lat="45.61354" lon="4.4513">
        <ele>539.632385</ele>
        <time>2019-07-11T20:00:03Z</time>
      </trkpt>
      <trkpt lat="45.6136" lon="4.45154">
        <ele>536.590393</ele>
        <time>2019-07-11T20:00:10Z</time>
      </trkpt>
      <trkpt lat="45.61381" lon="4.45206">
        <ele>528.315918</ele>
        <time>2019-07-11T20:00:17Z</time>
      </trkpt>
      <trkpt lat="45.61386" lon="4.45249">
        <ele>526.404846</ele>
        <time>2019-07-11T20:00:21Z</time>
      </trkpt>
      <trkpt lat="45.61388" lon="4.45294">
        <ele>525.394287</ele>
        <time>2019-07-11T20:00:33Z</time>
      </trkpt>
      <trkpt lat="45.61393" lon="4.45314">
        <ele>524.528076</ele>
        <time>2019-07-11T20:00:34Z</time>
      </trkpt>
      <trkpt lat="45.61445" lon="4.45324">
        <ele>517.563721</ele>
        <time>2019-07-11T20:00:39Z</time>
      </trkpt>
      <trkpt lat="45.61446" lon="4.45328">
        <ele>517.474976</ele>
        <time>2019-07-11T20:00:42Z</time>
      </trkpt>
      <trkpt lat="45.61436" lon="4.45357">
        <ele>517.358765</ele>
        <time>2019-07-11T20:00:54Z</time>
      </trkpt>
      <trkpt lat="45.61428" lon="4.45368">
        <ele>517.86499</ele>
        <time>2019-07-11T20:01:07Z</time>
      </trkpt>
      <trkpt lat="45.61384" lon="4.4541">
        <ele>520.141907</ele>
        <time>2019-07-11T20:01:11Z</time>
      </trkpt>
      <trkpt lat="45.61335" lon="4.45447">
        <ele>521.785034</ele>
        <time>2019-07-11T20:01:14Z</time>
      </trkpt>
      <trkpt lat="45.61318" lon="4.45457">
        <ele>522.099976</ele>
        <time>2019-07-11T20:01:17Z</time>
      </trkpt>
      <trkpt lat="45.61321" lon="4.4547">
        <ele>520.200012</ele>
        <time>2019-07-11T20:01:22Z</time>
      </trkpt>
      <trkpt lat="45.61332" lon="4.45484">
        <ele>517.51001</ele>
        <time>2019-07-11T20:01:29Z</time>
      </trkpt>
      <trkpt lat="45.61336" lon="4.45512">
        <ele>513.640015</ele>
        <time>2019-07-11T20:01:34Z</time>
      </trkpt>
      <trkpt lat="45.61336" lon="4.45556">
        <ele>511.151398</ele>
        <time>2019-07-11T20:01:38Z</time>
      </trkpt>
      <trkpt lat="45.61331" lon="4.45586">
        <ele>510.177612</ele>
        <time>2019-07-11T20:01:45Z</time>
      </trkpt>
      <trkpt lat="45.61335" lon="4.45608">
        <ele>510.959686</ele>
        <time>2019-07-11T20:01:48Z</time>
      </trkpt>
      <trkpt lat="45.61352" lon="4.45647">
        <ele>513.686279</ele>
        <time>2019-07-11T20:01:51Z</time>
      </trkpt>
      <trkpt lat="45.61361" lon="4.45658">
        <ele>515.337524</ele>
        <time>2019-07-11T20:01:59Z</time>
      </trkpt>
      <trkpt lat="45.61375" lon="4.45658">
        <ele>516.533752</ele>
        <time>2019-07-11T20:02:01Z</time>
      </trkpt>
      <trkpt lat="45.61406" lon="4.45644">
        <ele>519.311829</ele>
        <time>2019-07-11T20:02:03Z</time>
      </trkpt>
      <trkpt lat="45.61416" lon="4.45642">
        <ele>520.722168</ele>
        <time>2019-07-11T20:02:17Z</time>
      </trkpt>
      <trkpt lat="45.61421" lon="4.45651">
        <ele>522.672607</ele>
        <time>2019-07-11T20:02:33Z</time>
      </trkpt>
      <trkpt lat="45.61422" lon="4.45738">
        <ele>530.389893</ele>
        <time>2019-07-11T20:02:51Z</time>
      </trkpt>
      <trkpt lat="45.61431" lon="4.45837">
        <ele>535.590027</ele>
        <time>2019-07-11T20:03:01Z</time>
      </trkpt>
      <trkpt lat="45.61444" lon="4.45941">
        <ele>540.5</ele>
        <time>2019-07-11T20:03:03Z</time>
      </trkpt>
      <trkpt lat="45.61458" lon="4.46002">
        <ele>545.5625</ele>
        <time>2019-07-11T20:03:05Z</time>
      </trkpt>
      <trkpt lat="45.61466" lon="4.46004">
        <ele>548.262512</ele>
        <time>2019-07-11T20:03:08Z</time>
      </trkpt>
      <trkpt lat="45.61471" lon="4.46009">
        <ele>549.950012</ele>
        <time>2019-07-11T20:03:31Z</time>
      </trkpt>
      <trkpt lat="45.61477" lon="4.46028">
        <ele>552.057068</ele>
        <time>2019-07-11T20:03:36Z</time>
      </trkpt>
      <trkpt lat="45.61511" lon="4.46158">
        <ele>558.065186</ele>
        <time>2019-07-11T20:03:47Z</time>
      </trkpt>
      <trkpt lat="45.61516" lon="4.46188">
        <ele>557.951843</ele>
        <time>2019-07-11T20:03:52Z</time>
      </trkpt>
      <trkpt lat="45.61544" lon="4.46242">
        <ele>565.038757</ele>
        <time>2019-07-11T20:03:54Z</time>
      </trkpt>
      <trkpt lat="45.6156" lon="4.46262">
        <ele>570.665039</ele>
        <time>2019-07-11T20:04:01Z</time>
      </trkpt>
      <trkpt lat="45.61568" lon="4.46258">
        <ele>572.491821</ele>
        <time>2019-07-11T20:04:04Z</time>
      </trkpt>
      <trkpt lat="45.61589" lon="4.46228">
        <ele>576.839966</ele>
        <time>2019-07-11T20:04:10Z</time>
      </trkpt>
      <trkpt lat="45.61597" lon="4.46212">
        <ele>579.387512</ele>
        <time>2019-07-11T20:04:13Z</time>
      </trkpt>
      <trkpt lat="45.61618" lon="4.46187">
        <ele>584.320007</ele>
        <time>2019-07-11T20:04:16Z</time>
      </trkpt>
      <trkpt lat="45.61628" lon="4.46176">
        <ele>586.19751</ele>
        <time>2019-07-11T20:04:20Z</time>
      </trkpt>
      <trkpt lat="45.6164" lon="4.46168">
        <ele>588.356934</ele>
        <time>2019-07-11T20:04:23Z</time>
      </trkpt>
      <trkpt lat="45.61655" lon="4.46164">
        <ele>590.957458</ele>
        <time>2019-07-11T20:04:32Z</time>
      </trkpt>
      <trkpt lat="45.61671" lon="4.46167">
        <ele>592.521973</ele>
        <time>2019-07-11T20:04:36Z</time>
      </trkpt>
      <trkpt lat="45.61706" lon="4.46185">
        <ele>594.961731</ele>
        <time>2019-07-11T20:04:38Z</time>
      </trkpt>
      <trkpt lat="45.61723" lon="4.46186">
        <ele>595.9552</ele>
        <time>2019-07-11T20:04:52Z</time>
      </trkpt>
      <trkpt lat="45.61732" lon="4.4618">
        <ele>596.536133</ele>
        <time>2019-07-11T20:04:55Z</time>
      </trkpt>
      <trkpt lat="45.6178" lon="4.46132">
        <ele>603.438354</ele>
        <time>2019-07-11T20:04:59Z</time>
      </trkpt>
      <trkpt lat="45.61794" lon="4.46129">
        <ele>604.44812</ele>
        <time>2019-07-11T20:05:06Z</time>
      </trkpt>
      <trkpt lat="45.61799" lon="4.46148">
        <ele>604.209473</ele>
        <time>2019-07-11T20:05:18Z</time>
      </trkpt>
      <trkpt lat="45.61789" lon="4.4619">
        <ele>602.801941</ele>
        <time>2019-07-11T20:05:31Z</time>
      </trkpt>
      <trkpt lat="45.61763" lon="4.46253">
        <ele>603.480835</ele>
        <time>2019-07-11T20:05:44Z</time>
      </trkpt>
      <trkpt lat="45.61724" lon="4.46313">
        <ele>602</ele>
        <time>2019-07-11T20:05:52Z</time>
      </trkpt>
      <trkpt lat="45.61682" lon="4.46366">
        <ele>601.196838</ele>
        <time>2019-07-11T20:05:59Z</time>
      </trkpt>
      <trkpt lat="45.61661" lon="4.464">
        <ele>599.994812</ele>
        <time>2019-07-11T20:06:02Z</time>
      </trkpt>
      <trkpt lat="45.61648" lon="4.46438">
        <ele>599.847107</ele>
        <time>2019-07-11T20:06:08Z</time>
      </trkpt>
      <trkpt lat="45.61645" lon="4.46455">
        <ele>599.739319</ele>
        <time>2019-07-11T20:06:19Z</time>
      </trkpt>
      <trkpt lat="45.61643" lon="4.46497">
        <ele>600.640198</ele>
        <time>2019-07-11T20:06:33Z</time>
      </trkpt>
      <trkpt lat="45.61651" lon="4.46559">
        <ele>603.649658</ele>
        <time>2019-07-11T20:06:44Z</time>
      </trkpt>
      <trkpt lat="45.61675" lon="4.46639">
        <ele>608.985413</ele>
        <time>2019-07-11T20:06:50Z</time>
      </trkpt>
      <trkpt lat="45.61674" lon="4.46705">
        <ele>610.250244</ele>
        <time>2019-07-11T20:07:35Z</time>
      </trkpt>
      <trkpt lat="45.61669" lon="4.46744">
        <ele>610.634949</ele>
        <time>2019-07-11T20:07:44Z</time>
      </trkpt>
      <trkpt lat="45.61555" lon="4.46963">
        <ele>611.730225</ele>
        <time>2019-07-11T20:07:49Z</time>
      </trkpt>
      <trkpt lat="45.6153" lon="4.47004">
        <ele>612.963745</ele>
        <time>2019-07-11T20:08:01Z</time>
      </trkpt>
      <trkpt lat="45.61509" lon="4.47017">
        <ele>612.05249</ele>
        <time>2019-07-11T20:08:04Z</time>
      </trkpt>
      <trkpt lat="45.61459" lon="4.47007">
        <ele>607.422668</ele>
        <time>2019-07-11T20:08:07Z</time>
      </trkpt>
      <trkpt lat="45.61445" lon="4.47012">
        <ele>607.860046</ele>
        <time>2019-07-11T20:08:13Z</time>
      </trkpt>
      <trkpt lat="45.6144" lon="4.47028">
        <ele>610.71051</ele>
        <time>2019-07-11T20:08:20Z</time>
      </trkpt>
      <trkpt lat="45.61444" lon="4.47065">
        <ele>618.315918</ele>
        <time>2019-07-11T20:08:38Z</time>
      </trkpt>
      <trkpt lat="45.61455" lon="4.47106">
        <ele>628.272156</ele>
        <time>2019-07-11T20:08:41Z</time>
      </trkpt>
      <trkpt lat="45.61459" lon="4.47216">
        <ele>642.166077</ele>
        <time>2019-07-11T20:08:44Z</time>
      </trkpt>
      <trkpt lat="45.61462" lon="4.47232">
        <ele>642.603882</ele>
        <time>2019-07-11T20:08:45Z</time>
      </trkpt>
      <trkpt lat="45.61468" lon="4.47249">
        <ele>642.955017</ele>
        <time>2019-07-11T20:08:48Z</time>
      </trkpt>
      <trkpt lat="45.61472" lon="4.47253">
        <ele>642.988037</ele>
        <time>2019-07-11T20:09:07Z</time>
      </trkpt>
      <trkpt lat="45.61469" lon="4.47267">
        <ele>642.622192</ele>
        <time>2019-07-11T20:09:14Z</time>
      </trkpt>
      <trkpt lat="45.6141" lon="4.47352">
        <ele>642.982605</ele>
        <time>2019-07-11T20:09:17Z</time>
      </trkpt>
      <trkpt lat="45.61394" lon="4.47389">
        <ele>643.649902</ele>
        <time>2019-07-11T20:09:25Z</time>
      </trkpt>
      <trkpt lat="45.61399" lon="4.47403">
        <ele>644.212402</ele>
        <time>2019-07-11T20:09:34Z</time>
      </trkpt>
      <trkpt lat="45.6143" lon="4.47423">
        <ele>642.417786</ele>
        <time>2019-07-11T20:09:42Z</time>
      </trkpt>
      <trkpt lat="45.61462" lon="4.47454">
        <ele>640.227234</ele>
        <time>2019-07-11T20:10:03Z</time>
      </trkpt>
      <trkpt lat="45.61486" lon="4.47486">
        <ele>640.910217</ele>
        <time>2019-07-11T20:10:15Z</time>
      </trkpt>
      <trkpt lat="45.61546" lon="4.47585">
        <ele>635.206726</ele>
        <time>2019-07-11T20:10:19Z</time>
      </trkpt>
      <trkpt lat="45.61577" lon="4.47644">
        <ele>628.95752</ele>
        <time>2019-07-11T20:10:29Z</time>
      </trkpt>
      <trkpt lat="45.61594" lon="4.47649">
        <ele>626.466736</ele>
        <time>2019-07-11T20:10:35Z</time>
      </trkpt>
      <trkpt lat="45.61622" lon="4.47605">
        <ele>621.502625</ele>
        <time>2019-07-11T20:10:53Z</time>
      </trkpt>
      <trkpt lat="45.61634" lon="4.47572">
        <ele>618.447815</ele>
        <time>2019-07-11T20:11:00Z</time>
      </trkpt>
      <trkpt lat="45.61678" lon="4.47478">
        <ele>606.927002</ele>
        <time>2019-07-11T20:11:08Z</time>
      </trkpt>
      <trkpt lat="45.61687" lon="4.47439">
        <ele>604.695435</ele>
        <time>2019-07-11T20:11:17Z</time>
      </trkpt>
      <trkpt lat="45.61703" lon="4.47398">
        <ele>603.795715</ele>
        <time>2019-07-11T20:11:36Z</time>
      </trkpt>
      <trkpt lat="45.61732" lon="4.47364">
        <ele>602.412048</ele>
        <time>2019-07-11T20:11:45Z</time>
      </trkpt>
      <trkpt lat="45.61808" lon="4.47319">
        <ele>597.169983</ele>
        <time>2019-07-11T20:11:50Z</time>
      </trkpt>
      <trkpt lat="45.61838" lon="4.47281">
        <ele>596.452698</ele>
        <time>2019-07-11T20:11:58Z</time>
      </trkpt>
      <trkpt lat="45.61856" lon="4.47269">
        <ele>594.741211</ele>
        <time>2019-07-11T20:12:09Z</time>
      </trkpt>
      <trkpt lat="45.61891" lon="4.47262">
        <ele>589.487976</ele>
        <time>2019-07-11T20:12:24Z</time>
      </trkpt>
      <trkpt lat="45.61931" lon="4.47229">
        <ele>585.484985</ele>
        <time>2019-07-11T20:12:32Z</time>
      </trkpt>
      <trkpt lat="45.61979" lon="4.47167">
        <ele>581.718567</ele>
        <time>2019-07-11T20:12:39Z</time>
      </trkpt>
      <trkpt lat="45.61999" lon="4.47125">
        <ele>584.942566</ele>
        <time>2019-07-11T20:12:48Z</time>
      </trkpt>
      <trkpt lat="45.62023" lon="4.471">
        <ele>589.215393</ele>
        <time>2019-07-11T20:12:50Z</time>
      </trkpt>
      <trkpt lat="45.62059" lon="4.47122">
        <ele>586.224609</ele>
        <time>2019-07-11T20:12:58Z</time>
      </trkpt>
      <trkpt lat="45.62065" lon="4.47128">
        <ele>585.60022</ele>
        <time>2019-07-11T20:13:04Z</time>
      </trkpt>
      <trkpt lat="45.62099" lon="4.47138">
        <ele>583.563232</ele>
        <time>2019-07-11T20:13:10Z</time>
      </trkpt>
      <trkpt lat="45.62123" lon="4.47133">
        <ele>581.404358</ele>
        <time>2019-07-11T20:13:13Z</time>
      </trkpt>
      <trkpt lat="45.62146" lon="4.4712">
        <ele>577.924988</ele>
        <time>2019-07-11T20:13:24Z</time>
      </trkpt>
      <trkpt lat="45.62157" lon="4.4711">
        <ele>576.422485</ele>
        <time>2019-07-11T20:13:45Z</time>
      </trkpt>
      <trkpt lat="45.62192" lon="4.47064">
        <ele>571.337524</ele>
        <time>2019-07-11T20:13:50Z</time>
      </trkpt>
      <trkpt lat="45.62264" lon="4.46984">
        <ele>561.633362</ele>
        <time>2019-07-11T20:14:02Z</time>
      </trkpt>
      <trkpt lat="45.62282" lon="4.46972">
        <ele>560.400024</ele>
        <time>2019-07-11T20:14:10Z</time>
      </trkpt>
      <trkpt lat="45.62328" lon="4.46934">
        <ele>558.934998</ele>
        <time>2019-07-11T20:14:17Z</time>
      </trkpt>
      <trkpt lat="45.62357" lon="4.46906">
        <ele>559.581238</ele>
        <time>2019-07-11T20:14:43Z</time>
      </trkpt>
      <trkpt lat="45.62378" lon="4.46876">
        <ele>558.872437</ele>
        <time>2019-07-11T20:14:46Z</time>
      </trkpt>
      <trkpt lat="45.6245" lon="4.46759">
        <ele>551.134644</ele>
        <time>2019-07-11T20:14:52Z</time>
      </trkpt>
      <trkpt lat="45.62464" lon="4.46765">
        <ele>551.137329</ele>
        <time>2019-07-11T20:15:05Z</time>
      </trkpt>
      <trkpt lat="45.62488" lon="4.46781">
        <ele>551.921326</ele>
        <time>2019-07-11T20:15:09Z</time>
      </trkpt>
      <trkpt lat="45.62529" lon="4.46832">
        <ele>544.216003</ele>
        <time>2019-07-11T20:15:21Z</time>
      </trkpt>
      <trkpt lat="45.62547" lon="4.46836">
        <ele>539.160522</ele>
        <time>2019-07-11T20:15:29Z</time>
      </trkpt>
      <trkpt lat="45.62595" lon="4.4681">
        <ele>532.020813</ele>
        <time>2019-07-11T20:15:33Z</time>
      </trkpt>
      <trkpt lat="45.62631" lon="4.46808">
        <ele>526.569824</ele>
        <time>2019-07-11T20:15:40Z</time>
      </trkpt>
      <trkpt lat="45.62646" lon="4.46813">
        <ele>524.249939</ele>
        <time>2019-07-11T20:15:46Z</time>
      </trkpt>
      <trkpt lat="45.62675" lon="4.46815">
        <ele>521.794983</ele>
        <time>2019-07-11T20:15:49Z</time>
      </trkpt>
      <trkpt lat="45.62698" lon="4.46803">
        <ele>520.031067</ele>
        <time>2019-07-11T20:15:52Z</time>
      </trkpt>
      <trkpt lat="45.62712" lon="4.46801">
        <ele>518.077698</ele>
        <time>2019-07-11T20:15:57Z</time>
      </trkpt>
      <trkpt lat="45.6272" lon="4.46818">
        <ele>515.494629</ele>
        <time>2019-07-11T20:16:03Z</time>
      </trkpt>
      <trkpt lat="45.62717" lon="4.46845">
        <ele>513.659302</ele>
        <time>2019-07-11T20:16:07Z</time>
      </trkpt>
      <trkpt lat="45.62694" lon="4.46868">
        <ele>513.763184</ele>
        <time>2019-07-11T20:16:14Z</time>
      </trkpt>
      <trkpt lat="45.62685" lon="4.4689">
        <ele>512.271118</ele>
        <time>2019-07-11T20:16:18Z</time>
      </trkpt>
      <trkpt lat="45.62696" lon="4.4693">
        <ele>512.687134</ele>
        <time>2019-07-11T20:16:21Z</time>
      </trkpt>
      <trkpt lat="45.62692" lon="4.46949">
        <ele>516.017151</ele>
        <time>2019-07-11T20:16:29Z</time>
      </trkpt>
      <trkpt lat="45.6268" lon="4.46963">
        <ele>518.002991</ele>
        <time>2019-07-11T20:16:32Z</time>
      </trkpt>
      <trkpt lat="45.62652" lon="4.46982">
        <ele>518.553955</ele>
        <time>2019-07-11T20:16:35Z</time>
      </trkpt>
      <trkpt lat="45.62646" lon="4.46999">
        <ele>518.821838</ele>
        <time>2019-07-11T20:16:38Z</time>
      </trkpt>
      <trkpt lat="45.62645" lon="4.47017">
        <ele>519.564575</ele>
        <time>2019-07-11T20:16:46Z</time>
      </trkpt>
      <trkpt lat="45.62648" lon="4.47035">
        <ele>520.804565</ele>
        <time>2019-07-11T20:16:50Z</time>
      </trkpt>
      <trkpt lat="45.62669" lon="4.47074">
        <ele>524.018677</ele>
        <time>2019-07-11T20:17:00Z</time>
      </trkpt>
      <trkpt lat="45.62661" lon="4.47095">
        <ele>523.271362</ele>
        <time>2019-07-11T20:17:02Z</time>
      </trkpt>
      <trkpt lat="45.6262" lon="4.47127">
        <ele>521.67572</ele>
        <time>2019-07-11T20:17:06Z</time>
      </trkpt>
      <trkpt lat="45.62617" lon="4.47137">
        <ele>522.337585</ele>
        <time>2019-07-11T20:17:11Z</time>
      </trkpt>
      <trkpt lat="45.62625" lon="4.47158">
        <ele>524.334045</ele>
        <time>2019-07-11T20:17:16Z</time>
      </trkpt>
      <trkpt lat="45.62628" lon="4.47185">
        <ele>526.334412</ele>
        <time>2019-07-11T20:17:19Z</time>
      </trkpt>
      <trkpt lat="45.62635" lon="4.47217">
        <ele>528.435852</ele>
        <time>2019-07-11T20:17:20Z</time>
      </trkpt>
      <trkpt lat="45.62647" lon="4.47222">
        <ele>529.044189</ele>
        <time>2019-07-11T20:17:22Z</time>
      </trkpt>
      <trkpt lat="45.62653" lon="4.4722">
        <ele>529.135559</ele>
        <time>2019-07-11T20:17:28Z</time>
      </trkpt>
      <trkpt lat="45.6266" lon="4.47226">
        <ele>529.567383</ele>
        <time>2019-07-11T20:17:33Z</time>
      </trkpt>
      <trkpt lat="45.62649" lon="4.47254">
        <ele>531.981812</ele>
        <time>2019-07-11T20:17:38Z</time>
      </trkpt>
      <trkpt lat="45.62644" lon="4.47285">
        <ele>535.229126</ele>
        <time>2019-07-11T20:17:43Z</time>
      </trkpt>
      <trkpt lat="45.62647" lon="4.47315">
        <ele>538.921265</ele>
        <time>2019-07-11T20:17:50Z</time>
      </trkpt>
      <trkpt lat="45.62655" lon="4.47344">
        <ele>542.994995</ele>
        <time>2019-07-11T20:18:03Z</time>
      </trkpt>
      <trkpt lat="45.6267" lon="4.4738">
        <ele>547.305664</ele>
        <time>2019-07-11T20:18:17Z</time>
      </trkpt>
      <trkpt lat="45.62694" lon="4.47457">
        <ele>554.744324</ele>
        <time>2019-07-11T20:18:23Z</time>
      </trkpt>
      <trkpt lat="45.62716" lon="4.47534">
        <ele>560.16217</ele>
        <time>2019-07-11T20:18:34Z</time>
      </trkpt>
      <trkpt lat="45.62721" lon="4.47568">
        <ele>561.384277</ele>
        <time>2019-07-11T20:18:38Z</time>
      </trkpt>
      <trkpt lat="45.62741" lon="4.47632">
        <ele>563.02832</ele>
        <time>2019-07-11T20:18:56Z</time>
      </trkpt>
      <trkpt lat="45.62755" lon="4.47641">
        <ele>563.547119</ele>
        <time>2019-07-11T20:19:00Z</time>
      </trkpt>
      <trkpt lat="45.62832" lon="4.47663">
        <ele>561.283447</ele>
        <time>2019-07-11T20:19:03Z</time>
      </trkpt>
      <trkpt lat="45.62847" lon="4.47672">
        <ele>559.778687</ele>
        <time>2019-07-11T20:19:09Z</time>
      </trkpt>
      <trkpt lat="45.6286" lon="4.47676">
        <ele>558.27771</ele>
        <time>2019-07-11T20:19:19Z</time>
      </trkpt>
      <trkpt lat="45.62865" lon="4.47642">
        <ele>555.849548</ele>
        <time>2019-07-11T20:19:25Z</time>
      </trkpt>
      <trkpt lat="45.62866" lon="4.47579">
        <ele>554.297485</ele>
        <time>2019-07-11T20:19:35Z</time>
      </trkpt>
      <trkpt lat="45.62864" lon="4.47539">
        <ele>552.074402</ele>
        <time>2019-07-11T20:19:44Z</time>
      </trkpt>
      <trkpt lat="45.62867" lon="4.47478">
        <ele>545.26178</ele>
        <time>2019-07-11T20:19:47Z</time>
      </trkpt>
      <trkpt lat="45.62884" lon="4.47432">
        <ele>540.104614</ele>
        <time>2019-07-11T20:19:54Z</time>
      </trkpt>
      <trkpt lat="45.62896" lon="4.4742">
        <ele>541.63623</ele>
        <time>2019-07-11T20:20:06Z</time>
      </trkpt>
      <trkpt lat="45.62915" lon="4.47391">
        <ele>544.562439</ele>
        <time>2019-07-11T20:20:12Z</time>
      </trkpt>
      <trkpt lat="45.62936" lon="4.47322">
        <ele>543.123291</ele>
        <time>2019-07-11T20:20:16Z</time>
      </trkpt>
      <trkpt lat="45.62939" lon="4.47286">
        <ele>544.866272</ele>
        <time>2019-07-11T20:20:19Z</time>
      </trkpt>
      <trkpt lat="45.62937" lon="4.47264">
        <ele>547.091553</ele>
        <time>2019-07-11T20:20:24Z</time>
      </trkpt>
      <trkpt lat="45.62932" lon="4.47247">
        <ele>548.538757</ele>
        <time>2019-07-11T20:20:27Z</time>
      </trkpt>
      <trkpt lat="45.62916" lon="4.47222">
        <ele>551.190857</ele>
        <time>2019-07-11T20:20:34Z</time>
      </trkpt>
      <trkpt lat="45.62911" lon="4.47206">
        <ele>553.190002</ele>
        <time>2019-07-11T20:20:44Z</time>
      </trkpt>
      <trkpt lat="45.6292" lon="4.47165">
        <ele>558.419312</ele>
        <time>2019-07-11T20:20:59Z</time>
      </trkpt>
      <trkpt lat="45.62937" lon="4.47107">
        <ele>560.580017</ele>
        <time>2019-07-11T20:21:04Z</time>
      </trkpt>
      <trkpt lat="45.62972" lon="4.4703">
        <ele>561.260071</ele>
        <time>2019-07-11T20:21:10Z</time>
      </trkpt>
      <trkpt lat="45.62989" lon="4.47011">
        <ele>561.282776</ele>
        <time>2019-07-11T20:21:26Z</time>
      </trkpt>
      <trkpt lat="45.63011" lon="4.47012">
        <ele>563.395752</ele>
        <time>2019-07-11T20:21:30Z</time>
      </trkpt>
      <trkpt lat="45.63081" lon="4.47027">
        <ele>570.595276</ele>
        <time>2019-07-11T20:21:32Z</time>
      </trkpt>
      <trkpt lat="45.63096" lon="4.47035">
        <ele>572.984985</ele>
        <time>2019-07-11T20:22:04Z</time>
      </trkpt>
      <trkpt lat="45.63105" lon="4.47033">
        <ele>573.323242</ele>
        <time>2019-07-11T20:22:44Z</time>
      </trkpt>
      <trkpt lat="45.63231" lon="4.46959">
        <ele>570.090027</ele>
        <time>2019-07-11T20:22:55Z</time>
      </trkpt>
      <trkpt lat="45.63392" lon="4.46872">
        <ele>560.318726</ele>
        <time>2019-07-11T20:23:03Z</time>
      </trkpt>
      <trkpt lat="45.63434" lon="4.46838">
        <ele>556.654724</ele>
        <time>2019-07-11T20:23:09Z</time>
      </trkpt>
      <trkpt lat="45.6346" lon="4.4681">
        <ele>553.221741</ele>
        <time>2019-07-11T20:23:16Z</time>
      </trkpt>
      <trkpt lat="45.63481" lon="4.46792">
        <ele>552.64563</ele>
        <time>2019-07-11T20:23:20Z</time>
      </trkpt>
      <trkpt lat="45.63505" lon="4.46762">
        <ele>549.497375</ele>
        <time>2019-07-11T20:23:29Z</time>
      </trkpt>
      <trkpt lat="45.63507" lon="4.46736">
        <ele>549.802612</ele>
        <time>2019-07-11T20:23:31Z</time>
      </trkpt>
      <trkpt lat="45.63485" lon="4.46695">
        <ele>549.860657</ele>
        <time>2019-07-11T20:23:35Z</time>
      </trkpt>
      <trkpt lat="45.6348" lon="4.46681">
        <ele>550.885803</ele>
        <time>2019-07-11T20:23:39Z</time>
      </trkpt>
      <trkpt lat="45.63475" lon="4.46662">
        <ele>552.841309</ele>
        <time>2019-07-11T20:23:52Z</time>
      </trkpt>
      <trkpt lat="45.63474" lon="4.46634">
        <ele>555.508911</ele>
        <time>2019-07-11T20:24:05Z</time>
      </trkpt>
      <trkpt lat="45.63488" lon="4.46559">
        <ele>563.399536</ele>
        <time>2019-07-11T20:24:15Z</time>
      </trkpt>
      <trkpt lat="45.63499" lon="4.46478">
        <ele>570.340027</ele>
        <time>2019-07-11T20:24:20Z</time>
      </trkpt>
      <trkpt lat="45.63512" lon="4.46421">
        <ele>571.422913</ele>
        <time>2019-07-11T20:24:38Z</time>
      </trkpt>
      <trkpt lat="45.63514" lon="4.46389">
        <ele>573.930298</ele>
        <time>2019-07-11T20:24:43Z</time>
      </trkpt>
      <trkpt lat="45.63542" lon="4.4629">
        <ele>580.085693</ele>
        <time>2019-07-11T20:24:47Z</time>
      </trkpt>
      <trkpt lat="45.63547" lon="4.46259">
        <ele>582.651794</ele>
        <time>2019-07-11T20:24:49Z</time>
      </trkpt>
      <trkpt lat="45.63547" lon="4.46234">
        <ele>585.154968</ele>
        <time>2019-07-11T20:24:53Z</time>
      </trkpt>
      <trkpt lat="45.63552" lon="4.46228">
        <ele>585.309998</ele>
        <time>2019-07-11T20:24:54Z</time>
      </trkpt>
      <trkpt lat="45.63569" lon="4.46235">
        <ele>583.190002</ele>
        <time>2019-07-11T20:24:55Z</time>
      </trkpt>
      <trkpt lat="45.63576" lon="4.46235">
        <ele>582.599976</ele>
        <time>2019-07-11T20:24:57Z</time>
      </trkpt>
      <trkpt lat="45.63578" lon="4.46238">
        <ele>582.132507</ele>
        <time>2019-07-11T20:25:03Z</time>
      </trkpt>
      <trkpt lat="45.63586" lon="4.46235">
        <ele>581.865417</ele>
        <time>2019-07-11T20:25:18Z</time>
      </trkpt>
      <trkpt lat="45.63608" lon="4.46211">
        <ele>584.137207</ele>
        <time>2019-07-11T20:25:21Z</time>
      </trkpt>
      <trkpt lat="45.63655" lon="4.46152">
        <ele>587.953735</ele>
        <time>2019-07-11T20:25:30Z</time>
      </trkpt>
      <trkpt lat="45.63665" lon="4.46159">
        <ele>587.867493</ele>
        <time>2019-07-11T20:25:35Z</time>
      </trkpt>
      <trkpt lat="45.63695" lon="4.462">
        <ele>587.053772</ele>
        <time>2019-07-11T20:25:38Z</time>
      </trkpt>
      <trkpt lat="45.63713" lon="4.46212">
        <ele>587.387512</ele>
        <time>2019-07-11T20:25:51Z</time>
      </trkpt>
      <trkpt lat="45.63715" lon="4.46195">
        <ele>588.831238</ele>
        <time>2019-07-11T20:25:53Z</time>
      </trkpt>
      <trkpt lat="45.63702" lon="4.46118">
        <ele>592.344421</ele>
        <time>2019-07-11T20:25:59Z</time>
      </trkpt>
      <trkpt lat="45.63711" lon="4.46118">
        <ele>593.170227</ele>
        <time>2019-07-11T20:26:08Z</time>
      </trkpt>
      <trkpt lat="45.6373" lon="4.46141">
        <ele>594.212341</ele>
        <time>2019-07-11T20:26:15Z</time>
      </trkpt>
      <trkpt lat="45.63763" lon="4.46173">
        <ele>597.581848</ele>
        <time>2019-07-11T20:26:29Z</time>
      </trkpt>
      <trkpt lat="45.63786" lon="4.46202">
        <ele>599.283386</ele>
        <time>2019-07-11T20:26:35Z</time>
      </trkpt>
      <trkpt lat="45.63821" lon="4.46271">
        <ele>601.460022</ele>
        <time>2019-07-11T20:26:41Z</time>
      </trkpt>
      <trkpt lat="45.6384" lon="4.46295">
        <ele>602.599976</ele>
        <time>2019-07-11T20:27:03Z</time>
      </trkpt>
      <trkpt lat="45.63863" lon="4.46307">
        <ele>604.377502</ele>
        <time>2019-07-11T20:27:58Z</time>
      </trkpt>
      <trkpt lat="45.63958" lon="4.46311">
        <ele>609.695007</ele>
        <time>2019-07-11T20:28:01Z</time>
      </trkpt>
      <trkpt lat="45.64194" lon="4.46309">
        <ele>623.840027</ele>
        <time>2019-07-11T20:28:06Z</time>
      </trkpt>
      <trkpt lat="45.64205" lon="4.463">
        <ele>624.619995</ele>
        <time>2019-07-11T20:28:18Z</time>
      </trkpt>
      <trkpt lat="45.64222" lon="4.4628">
        <ele>626.174988</ele>
        <time>2019-07-11T20:28:37Z</time>
      </trkpt>
      <trkpt lat="45.64256" lon="4.46227">
        <ele>630.07251</ele>
        <time>2019-07-11T20:28:47Z</time>
      </trkpt>
      <trkpt lat="45.64313" lon="4.46146">
        <ele>634.440063</ele>
        <time>2019-07-11T20:29:01Z</time>
      </trkpt>
      <trkpt lat="45.64358" lon="4.46146">
        <ele>637.442505</ele>
        <time>2019-07-11T20:29:07Z</time>
      </trkpt>
      <trkpt lat="45.64419" lon="4.46134">
        <ele>639.955444</ele>
        <time>2019-07-11T20:29:23Z</time>
      </trkpt>
      <trkpt lat="45.64441" lon="4.46134">
        <ele>640.300232</ele>
        <time>2019-07-11T20:29:32Z</time>
      </trkpt>
      <trkpt lat="45.64512" lon="4.4615">
        <ele>641.294495</ele>
        <time>2019-07-11T20:29:39Z</time>
      </trkpt>
      <trkpt lat="45.64549" lon="4.46147">
        <ele>640.147705</ele>
        <time>2019-07-11T20:29:41Z</time>
      </trkpt>
      <trkpt lat="45.64579" lon="4.46148">
        <ele>639.529663</ele>
        <time>2019-07-11T20:29:50Z</time>
      </trkpt>
      <trkpt lat="45.64588" lon="4.46151">
        <ele>639.233398</ele>
        <time>2019-07-11T20:29:56Z</time>
      </trkpt>
      <trkpt lat="45.64622" lon="4.46175">
        <ele>639.55835</ele>
        <time>2019-07-11T20:30:05Z</time>
      </trkpt>
      <trkpt lat="45.64647" lon="4.46187">
        <ele>637.692322</ele>
        <time>2019-07-11T20:30:24Z</time>
      </trkpt>
      <trkpt lat="45.6468" lon="4.46207">
        <ele>636.440857</ele>
        <time>2019-07-11T20:30:42Z</time>
      </trkpt>
      <trkpt lat="45.64751" lon="4.46267">
        <ele>633.451904</ele>
        <time>2019-07-11T20:30:52Z</time>
      </trkpt>
      <trkpt lat="45.64813" lon="4.46336">
        <ele>631.586243</ele>
        <time>2019-07-11T20:30:59Z</time>
      </trkpt>
      <trkpt lat="45.64847" lon="4.46368">
        <ele>628.942017</ele>
        <time>2019-07-11T20:31:07Z</time>
      </trkpt>
      <trkpt lat="45.64867" lon="4.46404">
        <ele>627.942688</ele>
        <time>2019-07-11T20:31:11Z</time>
      </trkpt>
      <trkpt lat="45.64886" lon="4.46446">
        <ele>628.540588</ele>
        <time>2019-07-11T20:31:17Z</time>
      </trkpt>
      <trkpt lat="45.64902" lon="4.4645">
        <ele>627.270569</ele>
        <time>2019-07-11T20:31:25Z</time>
      </trkpt>
      <trkpt lat="45.64928" lon="4.46446">
        <ele>624.021179</ele>
        <time>2019-07-11T20:31:35Z</time>
      </trkpt>
      <trkpt lat="45.64958" lon="4.46458">
        <ele>621.419983</ele>
        <time>2019-07-11T20:31:54Z</time>
      </trkpt>
      <trkpt lat="45.64992" lon="4.46499">
        <ele>621.439514</ele>
        <time>2019-07-11T20:31:57Z</time>
      </trkpt>
      <trkpt lat="45.65066" lon="4.46542">
        <ele>614.75116</ele>
        <time>2019-07-11T20:32:07Z</time>
      </trkpt>
      <trkpt lat="45.65076" lon="4.4653">
        <ele>613.97229</ele>
        <time>2019-07-11T20:32:14Z</time>
      </trkpt>
      <trkpt lat="45.65087" lon="4.4647">
        <ele>613.299988</ele>
        <time>2019-07-11T20:32:24Z</time>
      </trkpt>
      <trkpt lat="45.65099" lon="4.46432">
        <ele>614.909973</ele>
        <time>2019-07-11T20:32:28Z</time>
      </trkpt>
      <trkpt lat="45.65129" lon="4.46382">
        <ele>618.393982</ele>
        <time>2019-07-11T20:32:42Z</time>
      </trkpt>
      <trkpt lat="45.65134" lon="4.46363">
        <ele>619.191772</ele>
        <time>2019-07-11T20:33:07Z</time>
      </trkpt>
      <trkpt lat="45.65125" lon="4.46274">
        <ele>623.940979</ele>
        <time>2019-07-11T20:33:20Z</time>
      </trkpt>
      <trkpt lat="45.65104" lon="4.46128">
        <ele>631.023743</ele>
        <time>2019-07-11T20:33:46Z</time>
      </trkpt>
      <trkpt lat="45.65095" lon="4.46049">
        <ele>633.312195</ele>
        <time>2019-07-11T20:33:51Z</time>
      </trkpt>
      <trkpt lat="45.65092" lon="4.45889">
        <ele>635.828735</ele>
        <time>2019-07-11T20:33:55Z</time>
      </trkpt>
      <trkpt lat="45.65084" lon="4.45857">
        <ele>635.55249</ele>
        <time>2019-07-11T20:34:08Z</time>
      </trkpt>
      <trkpt lat="45.65075" lon="4.4584">
        <ele>635.050842</ele>
        <time>2019-07-11T20:34:14Z</time>
      </trkpt>
      <trkpt lat="45.65033" lon="4.4579">
        <ele>633.882507</ele>
        <time>2019-07-11T20:34:31Z</time>
      </trkpt>
      <trkpt lat="45.65019" lon="4.45754">
        <ele>632.503357</ele>
        <time>2019-07-11T20:34:41Z</time>
      </trkpt>
      <trkpt lat="45.64995" lon="4.45659">
        <ele>627.32666</ele>
        <time>2019-07-11T20:35:04Z</time>
      </trkpt>
      <trkpt lat="45.64985" lon="4.45598">
        <ele>627.60498</ele>
        <time>2019-07-11T20:35:31Z</time>
      </trkpt>
      <trkpt lat="45.64972" lon="4.45457">
        <ele>634.900024</ele>
        <time>2019-07-11T20:35:40Z</time>
      </trkpt>
      <trkpt lat="45.64964" lon="4.45293">
        <ele>644.370667</ele>
        <time>2019-07-11T20:35:56Z</time>
      </trkpt>
      <trkpt lat="45.64956" lon="4.45243">
        <ele>646.408386</ele>
        <time>2019-07-11T20:36:07Z</time>
      </trkpt>
      <trkpt lat="45.64933" lon="4.45148">
        <ele>649.184998</ele>
        <time>2019-07-11T20:36:15Z</time>
      </trkpt>
      <trkpt lat="45.64933" lon="4.45081">
        <ele>651.297485</ele>
        <time>2019-07-11T20:36:32Z</time>
      </trkpt>
      <trkpt lat="45.64948" lon="4.45036">
        <ele>652.369995</ele>
        <time>2019-07-11T20:36:50Z</time>
      </trkpt>
      <trkpt lat="45.64876" lon="4.4506">
        <ele>647.599976</ele>
      </trkpt>
      <trkpt lat="45.64801" lon="4.4506">
        <ele>644.151489</ele>
      </trkpt>
      <trkpt lat="45.64695" lon="4.45044">
        <ele>640.404358</ele>
      </trkpt>
      <trkpt lat="45.64513" lon="4.44988">
        <ele>636.095703</ele>
      </trkpt>
    </trkseg>
  </trk>
</gpx>